<?xml version="1.0" encoding="UTF-8" standalone="no" ?>
<gpx xmlns="http://www.topografix.com/GPX/1/1" xmlns:xsi="http://www.w3.org/2001/XMLSchema-instance" xsi:schemaLocation="http://www.topografix.com/GPX/1/1 http://www.topografix.com/GPX/1/1/gpx.xsd" version="1.1" creator="VisuGPX - https://www.visugpx.com">
  <metadata>
    <name>wandignie hamage 50</name>
  </metadata>
  <trk>
    <name><![CDATA[wandignie hamage 50]]></name>
    <trkseg>
      <trkpt lat="50.50361" lon="3.46454">
        <ele>20.89163</ele>
        <time>2020-06-01T15:02:12.816Z</time>
      </trkpt>
      <trkpt lat="50.50361" lon="3.46454">
        <ele>20.89163</ele>
        <time>2020-06-01T15:02:12.821Z</time>
      </trkpt>
      <trkpt lat="50.5034" lon="3.46438">
        <ele>20.89163</ele>
        <time>2020-06-01T15:02:16.376Z</time>
      </trkpt>
      <trkpt lat="50.50316" lon="3.46422">
        <ele>20.89163</ele>
        <time>2020-06-01T15:02:20.350Z</time>
      </trkpt>
      <trkpt lat="50.50313" lon="3.46411">
        <ele>20.89163</ele>
        <time>2020-06-01T15:02:21.428Z</time>
      </trkpt>
      <trkpt lat="50.50317" lon="3.46374">
        <ele>20.89163</ele>
        <time>2020-06-01T15:02:24.936Z</time>
      </trkpt>
      <trkpt lat="50.50325" lon="3.46304">
        <ele>20.800165</ele>
        <time>2020-06-01T15:02:31.357Z</time>
      </trkpt>
      <trkpt lat="50.50335" lon="3.46236">
        <ele>20.687575</ele>
        <time>2020-06-01T15:02:37.641Z</time>
      </trkpt>
      <trkpt lat="50.50345" lon="3.46155">
        <ele>20.555786</ele>
        <time>2020-06-01T15:02:45.018Z</time>
      </trkpt>
      <trkpt lat="50.50361" lon="3.46074">
        <ele>20.406292</ele>
        <time>2020-06-01T15:02:52.291Z</time>
      </trkpt>
      <trkpt lat="50.5041" lon="3.45851">
        <ele>19.732277</ele>
        <time>2020-06-01T15:03:12.339Z</time>
      </trkpt>
      <trkpt lat="50.50424" lon="3.45772">
        <ele>19.49883</ele>
        <time>2020-06-01T15:03:19.398Z</time>
      </trkpt>
      <trkpt lat="50.50433" lon="3.4572">
        <ele>19.344314</ele>
        <time>2020-06-01T15:03:24.091Z</time>
      </trkpt>
      <trkpt lat="50.50436" lon="3.45642">
        <ele>19.123279</ele>
        <time>2020-06-01T15:03:30.874Z</time>
      </trkpt>
      <trkpt lat="50.50437" lon="3.45631">
        <ele>19.091849</ele>
        <time>2020-06-01T15:03:31.708Z</time>
      </trkpt>
      <trkpt lat="50.5044" lon="3.45588">
        <ele>18.96757</ele>
        <time>2020-06-01T15:03:35.667Z</time>
      </trkpt>
      <trkpt lat="50.50441" lon="3.45573">
        <ele>18.923785</ele>
        <time>2020-06-01T15:03:36.861Z</time>
      </trkpt>
      <trkpt lat="50.50441" lon="3.45568">
        <ele>18.909156</ele>
        <time>2020-06-01T15:03:37.305Z</time>
      </trkpt>
      <trkpt lat="50.50443" lon="3.45552">
        <ele>18.86262</ele>
        <time>2020-06-01T15:03:38.736Z</time>
      </trkpt>
      <trkpt lat="50.50448" lon="3.45508">
        <ele>18.716916</ele>
        <time>2020-06-01T15:03:42.287Z</time>
      </trkpt>
      <trkpt lat="50.50447" lon="3.4549">
        <ele>18.652094</ele>
        <time>2020-06-01T15:03:43.872Z</time>
      </trkpt>
      <trkpt lat="50.50444" lon="3.45482">
        <ele>18.61901</ele>
        <time>2020-06-01T15:03:44.677Z</time>
      </trkpt>
      <trkpt lat="50.50416" lon="3.45464">
        <ele>18.45552</ele>
        <time>2020-06-01T15:03:48.555Z</time>
      </trkpt>
      <trkpt lat="50.50407" lon="3.45459">
        <ele>18.400704</ele>
        <time>2020-06-01T15:03:49.885Z</time>
      </trkpt>
      <trkpt lat="50.50355" lon="3.45425">
        <ele>18.092979</ele>
        <time>2020-06-01T15:03:57.379Z</time>
      </trkpt>
      <trkpt lat="50.50341" lon="3.45413">
        <ele>18.005079</ele>
        <time>2020-06-01T15:03:59.563Z</time>
      </trkpt>
      <trkpt lat="50.5031" lon="3.45386">
        <ele>17.825005</ele>
        <time>2020-06-01T15:04:04.224Z</time>
      </trkpt>
      <trkpt lat="50.50229" lon="3.45322">
        <ele>17.57936</ele>
        <time>2020-06-01T15:04:15.667Z</time>
      </trkpt>
      <trkpt lat="50.50195" lon="3.45295">
        <ele>17.4773</ele>
        <time>2020-06-01T15:04:21.378Z</time>
      </trkpt>
      <trkpt lat="50.50141" lon="3.4526">
        <ele>17.38082</ele>
        <time>2020-06-01T15:04:30.959Z</time>
      </trkpt>
      <trkpt lat="50.50129" lon="3.45252">
        <ele>17.410186</ele>
        <time>2020-06-01T15:04:32.961Z</time>
      </trkpt>
      <trkpt lat="50.50092" lon="3.45227">
        <ele>17.501491</ele>
        <time>2020-06-01T15:04:39.451Z</time>
      </trkpt>
      <trkpt lat="50.50084" lon="3.45223">
        <ele>17.520709</ele>
        <time>2020-06-01T15:04:40.771Z</time>
      </trkpt>
      <trkpt lat="50.50052" lon="3.45203">
        <ele>17.599161</ele>
        <time>2020-06-01T15:04:45.771Z</time>
      </trkpt>
      <trkpt lat="50.50051" lon="3.45202">
        <ele>17.602929</ele>
        <time>2020-06-01T15:04:46.034Z</time>
      </trkpt>
      <trkpt lat="50.50044" lon="3.45199">
        <ele>17.61886</ele>
        <time>2020-06-01T15:04:47.118Z</time>
      </trkpt>
      <trkpt lat="50.50005" lon="3.45189">
        <ele>17.708699</ele>
        <time>2020-06-01T15:04:53.319Z</time>
      </trkpt>
      <trkpt lat="50.49999" lon="3.45188">
        <ele>17.723136</ele>
        <time>2020-06-01T15:04:54.271Z</time>
      </trkpt>
      <trkpt lat="50.49974" lon="3.45177">
        <ele>17.764837</ele>
        <time>2020-06-01T15:04:58.697Z</time>
      </trkpt>
      <trkpt lat="50.49958" lon="3.45159">
        <ele>17.772839</ele>
        <time>2020-06-01T15:05:02.057Z</time>
      </trkpt>
      <trkpt lat="50.49943" lon="3.45125">
        <ele>17.783254</ele>
        <time>2020-06-01T15:05:06.346Z</time>
      </trkpt>
      <trkpt lat="50.49935" lon="3.45106">
        <ele>17.789222</ele>
        <time>2020-06-01T15:05:08.582Z</time>
      </trkpt>
      <trkpt lat="50.49924" lon="3.45113">
        <ele>17.794031</ele>
        <time>2020-06-01T15:05:10.448Z</time>
      </trkpt>
      <trkpt lat="50.49912" lon="3.45121">
        <ele>17.798917</ele>
        <time>2020-06-01T15:05:12.092Z</time>
      </trkpt>
      <trkpt lat="50.49899" lon="3.45131">
        <ele>17.804948</ele>
        <time>2020-06-01T15:05:14.133Z</time>
      </trkpt>
      <trkpt lat="50.49885" lon="3.4514">
        <ele>17.810876</ele>
        <time>2020-06-01T15:05:16.205Z</time>
      </trkpt>
      <trkpt lat="50.49879" lon="3.45144">
        <ele>17.813267</ele>
        <time>2020-06-01T15:05:16.973Z</time>
      </trkpt>
      <trkpt lat="50.49811" lon="3.4518">
        <ele>17.875616</ele>
        <time>2020-06-01T15:05:26.987Z</time>
      </trkpt>
      <trkpt lat="50.49723" lon="3.45207">
        <ele>18.053721</ele>
        <time>2020-06-01T15:05:41.554Z</time>
      </trkpt>
      <trkpt lat="50.49648" lon="3.45244">
        <ele>18.203906</ele>
        <time>2020-06-01T15:05:54.101Z</time>
      </trkpt>
      <trkpt lat="50.49624" lon="3.45256">
        <ele>18.239741</ele>
        <time>2020-06-01T15:05:59.501Z</time>
      </trkpt>
      <trkpt lat="50.49592" lon="3.45277">
        <ele>18.288713</ele>
        <time>2020-06-01T15:06:06.995Z</time>
      </trkpt>
      <trkpt lat="50.49561" lon="3.45307">
        <ele>18.341327</ele>
        <time>2020-06-01T15:06:14.892Z</time>
      </trkpt>
      <trkpt lat="50.4954" lon="3.45338">
        <ele>18.38234</ele>
        <time>2020-06-01T15:06:20.665Z</time>
      </trkpt>
      <trkpt lat="50.49517" lon="3.4538">
        <ele>18.431833</ele>
        <time>2020-06-01T15:06:27.447Z</time>
      </trkpt>
      <trkpt lat="50.49498" lon="3.45423">
        <ele>18.533651</ele>
        <time>2020-06-01T15:06:34.006Z</time>
      </trkpt>
      <trkpt lat="50.4949" lon="3.45459">
        <ele>18.623365</ele>
        <time>2020-06-01T15:06:38.992Z</time>
      </trkpt>
      <trkpt lat="50.49463" lon="3.45576">
        <ele>18.919934</ele>
        <time>2020-06-01T15:06:56.074Z</time>
      </trkpt>
      <trkpt lat="50.49409" lon="3.45833">
        <ele>19.954114</ele>
        <time>2020-06-01T15:07:37.016Z</time>
      </trkpt>
      <trkpt lat="50.49394" lon="3.45893">
        <ele>20.243692</ele>
        <time>2020-06-01T15:07:46.585Z</time>
      </trkpt>
      <trkpt lat="50.49387" lon="3.45927">
        <ele>20.353573</ele>
        <time>2020-06-01T15:07:51.746Z</time>
      </trkpt>
      <trkpt lat="50.49375" lon="3.45959">
        <ele>20.180897</ele>
        <time>2020-06-01T15:07:56.627Z</time>
      </trkpt>
      <trkpt lat="50.49302" lon="3.46091">
        <ele>19.369512</ele>
        <time>2020-06-01T15:08:16.856Z</time>
      </trkpt>
      <trkpt lat="50.49258" lon="3.4619">
        <ele>18.495845</ele>
        <time>2020-06-01T15:08:29.228Z</time>
      </trkpt>
      <trkpt lat="50.49198" lon="3.463">
        <ele>17.027948</ele>
        <time>2020-06-01T15:08:43.889Z</time>
      </trkpt>
      <trkpt lat="50.4911" lon="3.46408">
        <ele>15.90756</ele>
        <time>2020-06-01T15:09:02.730Z</time>
      </trkpt>
      <trkpt lat="50.49052" lon="3.46461">
        <ele>15.592688</ele>
        <time>2020-06-01T15:09:15.215Z</time>
      </trkpt>
      <trkpt lat="50.48946" lon="3.46572">
        <ele>15.671726</ele>
        <time>2020-06-01T15:09:42.996Z</time>
      </trkpt>
      <trkpt lat="50.48919" lon="3.46599">
        <ele>15.815202</ele>
        <time>2020-06-01T15:09:50.218Z</time>
      </trkpt>
      <trkpt lat="50.4891" lon="3.46609">
        <ele>15.862636</ele>
        <time>2020-06-01T15:09:52.787Z</time>
      </trkpt>
      <trkpt lat="50.48892" lon="3.46634">
        <ele>15.969846</ele>
        <time>2020-06-01T15:09:58.048Z</time>
      </trkpt>
      <trkpt lat="50.48873" lon="3.46674">
        <ele>16.113663</ele>
        <time>2020-06-01T15:10:05.367Z</time>
      </trkpt>
      <trkpt lat="50.4887" lon="3.46679">
        <ele>16.133892</ele>
        <time>2020-06-01T15:10:05.989Z</time>
      </trkpt>
      <trkpt lat="50.48807" lon="3.46816">
        <ele>16.603607</ele>
        <time>2020-06-01T15:10:24.499Z</time>
      </trkpt>
      <trkpt lat="50.488" lon="3.46856">
        <ele>16.719728</ele>
        <time>2020-06-01T15:10:28.718Z</time>
      </trkpt>
      <trkpt lat="50.48795" lon="3.4691">
        <ele>16.87208</ele>
        <time>2020-06-01T15:10:34.075Z</time>
      </trkpt>
      <trkpt lat="50.48793" lon="3.46933">
        <ele>16.934247</ele>
        <time>2020-06-01T15:10:36.602Z</time>
      </trkpt>
      <trkpt lat="50.48757" lon="3.47361">
        <ele>17.273849</ele>
        <time>2020-06-01T15:11:18.428Z</time>
      </trkpt>
      <trkpt lat="50.48743" lon="3.4748">
        <ele>17.389681</ele>
        <time>2020-06-01T15:11:30.429Z</time>
      </trkpt>
      <trkpt lat="50.48742" lon="3.47483">
        <ele>17.392427</ele>
        <time>2020-06-01T15:11:30.749Z</time>
      </trkpt>
      <trkpt lat="50.48729" lon="3.47551">
        <ele>17.483564</ele>
        <time>2020-06-01T15:11:37.921Z</time>
      </trkpt>
      <trkpt lat="50.4872" lon="3.47579">
        <ele>17.524881</ele>
        <time>2020-06-01T15:11:41.085Z</time>
      </trkpt>
      <trkpt lat="50.48711" lon="3.47619">
        <ele>17.581728</ele>
        <time>2020-06-01T15:11:45.322Z</time>
      </trkpt>
      <trkpt lat="50.48701" lon="3.47672">
        <ele>17.654277</ele>
        <time>2020-06-01T15:11:50.773Z</time>
      </trkpt>
      <trkpt lat="50.48689" lon="3.47737">
        <ele>17.744618</ele>
        <time>2020-06-01T15:11:57.724Z</time>
      </trkpt>
      <trkpt lat="50.48683" lon="3.47766">
        <ele>17.77435</ele>
        <time>2020-06-01T15:12:00.620Z</time>
      </trkpt>
      <trkpt lat="50.48676" lon="3.47786">
        <ele>17.771088</ele>
        <time>2020-06-01T15:12:03.089Z</time>
      </trkpt>
      <trkpt lat="50.48665" lon="3.47798">
        <ele>17.768214</ele>
        <time>2020-06-01T15:12:05.113Z</time>
      </trkpt>
      <trkpt lat="50.48564" lon="3.47844">
        <ele>17.745331</ele>
        <time>2020-06-01T15:12:20.533Z</time>
      </trkpt>
      <trkpt lat="50.4856" lon="3.47846">
        <ele>17.744274</ele>
        <time>2020-06-01T15:12:21.189Z</time>
      </trkpt>
      <trkpt lat="50.485" lon="3.47882">
        <ele>17.683311</ele>
        <time>2020-06-01T15:12:30.278Z</time>
      </trkpt>
      <trkpt lat="50.48439" lon="3.47931">
        <ele>17.54589</ele>
        <time>2020-06-01T15:12:40.008Z</time>
      </trkpt>
      <trkpt lat="50.48424" lon="3.4796">
        <ele>17.49631</ele>
        <time>2020-06-01T15:12:43.476Z</time>
      </trkpt>
      <trkpt lat="50.48417" lon="3.47979">
        <ele>17.468402</ele>
        <time>2020-06-01T15:12:45.404Z</time>
      </trkpt>
      <trkpt lat="50.48412" lon="3.48004">
        <ele>17.434744</ele>
        <time>2020-06-01T15:12:47.708Z</time>
      </trkpt>
      <trkpt lat="50.48408" lon="3.48038">
        <ele>17.39112</ele>
        <time>2020-06-01T15:12:50.705Z</time>
      </trkpt>
      <trkpt lat="50.48413" lon="3.48125">
        <ele>17.238506</ele>
        <time>2020-06-01T15:12:58.382Z</time>
      </trkpt>
      <trkpt lat="50.48414" lon="3.48159">
        <ele>17.175458</ele>
        <time>2020-06-01T15:13:01.392Z</time>
      </trkpt>
      <trkpt lat="50.48416" lon="3.48188">
        <ele>17.122595</ele>
        <time>2020-06-01T15:13:03.906Z</time>
      </trkpt>
      <trkpt lat="50.48419" lon="3.48244">
        <ele>17.019636</ele>
        <time>2020-06-01T15:13:08.742Z</time>
      </trkpt>
      <trkpt lat="50.48425" lon="3.48416">
        <ele>16.997386</ele>
        <time>2020-06-01T15:13:24.159Z</time>
      </trkpt>
      <trkpt lat="50.48425" lon="3.48435">
        <ele>17.030488</ele>
        <time>2020-06-01T15:13:25.930Z</time>
      </trkpt>
      <trkpt lat="50.48424" lon="3.48468">
        <ele>17.088155</ele>
        <time>2020-06-01T15:13:29.241Z</time>
      </trkpt>
      <trkpt lat="50.48421" lon="3.48496">
        <ele>17.138526</ele>
        <time>2020-06-01T15:13:32.131Z</time>
      </trkpt>
      <trkpt lat="50.48409" lon="3.48525">
        <ele>17.198064</ele>
        <time>2020-06-01T15:13:35.774Z</time>
      </trkpt>
      <trkpt lat="50.48377" lon="3.48595">
        <ele>17.353321</ele>
        <time>2020-06-01T15:13:45.132Z</time>
      </trkpt>
      <trkpt lat="50.48321" lon="3.4869">
        <ele>18.273095</ele>
        <time>2020-06-01T15:14:01.521Z</time>
      </trkpt>
      <trkpt lat="50.48239" lon="3.4873">
        <ele>19.22705</ele>
        <time>2020-06-01T15:14:18.512Z</time>
      </trkpt>
      <trkpt lat="50.48233" lon="3.48733">
        <ele>19.303141</ele>
        <time>2020-06-01T15:14:20.153Z</time>
      </trkpt>
      <trkpt lat="50.48225" lon="3.48736">
        <ele>19.37357</ele>
        <time>2020-06-01T15:14:21.623Z</time>
      </trkpt>
      <trkpt lat="50.48212" lon="3.48742">
        <ele>19.469829</ele>
        <time>2020-06-01T15:14:23.920Z</time>
      </trkpt>
      <trkpt lat="50.48203" lon="3.48748">
        <ele>19.544454</ele>
        <time>2020-06-01T15:14:26.051Z</time>
      </trkpt>
      <trkpt lat="50.48198" lon="3.48751">
        <ele>19.58293</ele>
        <time>2020-06-01T15:14:27.189Z</time>
      </trkpt>
      <trkpt lat="50.48039" lon="3.49011">
        <ele>21.211861</ele>
        <time>2020-06-01T15:15:06.373Z</time>
      </trkpt>
      <trkpt lat="50.47702" lon="3.49428">
        <ele>24.135687</ele>
        <time>2020-06-01T15:16:22.813Z</time>
      </trkpt>
      <trkpt lat="50.47524" lon="3.49696">
        <ele>25.197575</ele>
        <time>2020-06-01T15:17:01.904Z</time>
      </trkpt>
      <trkpt lat="50.47513" lon="3.49711">
        <ele>25.329925</ele>
        <time>2020-06-01T15:17:04.392Z</time>
      </trkpt>
      <trkpt lat="50.47428" lon="3.49563">
        <ele>26.463834</ele>
        <time>2020-06-01T15:17:28.922Z</time>
      </trkpt>
      <trkpt lat="50.47402" lon="3.49433">
        <ele>27.392041</ele>
        <time>2020-06-01T15:17:46.614Z</time>
      </trkpt>
      <trkpt lat="50.47379" lon="3.49359">
        <ele>27.954887</ele>
        <time>2020-06-01T15:17:56.732Z</time>
      </trkpt>
      <trkpt lat="50.47357" lon="3.49311">
        <ele>28.359525</ele>
        <time>2020-06-01T15:18:03.597Z</time>
      </trkpt>
      <trkpt lat="50.47221" lon="3.49078">
        <ele>29.070903</ele>
        <time>2020-06-01T15:18:36.186Z</time>
      </trkpt>
      <trkpt lat="50.47137" lon="3.48949">
        <ele>29.046528</ele>
        <time>2020-06-01T15:18:53.457Z</time>
      </trkpt>
      <trkpt lat="50.47109" lon="3.48894">
        <ele>29.036115</ele>
        <time>2020-06-01T15:18:59.748Z</time>
      </trkpt>
      <trkpt lat="50.47109" lon="3.48894">
        <ele>29.036115</ele>
        <time>2020-06-01T15:18:59.748Z</time>
      </trkpt>
      <trkpt lat="50.47106" lon="3.48875">
        <ele>29.004478</ele>
        <time>2020-06-01T15:19:01.499Z</time>
      </trkpt>
      <trkpt lat="50.47116" lon="3.48844">
        <ele>28.94735</ele>
        <time>2020-06-01T15:19:04.617Z</time>
      </trkpt>
      <trkpt lat="50.47148" lon="3.48805">
        <ele>28.844219</ele>
        <time>2020-06-01T15:19:10.202Z</time>
      </trkpt>
      <trkpt lat="50.47163" lon="3.48767">
        <ele>28.771043</ele>
        <time>2020-06-01T15:19:14.148Z</time>
      </trkpt>
      <trkpt lat="50.47158" lon="3.48746">
        <ele>28.733331</ele>
        <time>2020-06-01T15:19:16.171Z</time>
      </trkpt>
      <trkpt lat="50.47145" lon="3.48721">
        <ele>28.680667</ele>
        <time>2020-06-01T15:19:19.010Z</time>
      </trkpt>
      <trkpt lat="50.47068" lon="3.48628">
        <ele>28.363337</ele>
        <time>2020-06-01T15:19:32.608Z</time>
      </trkpt>
      <trkpt lat="50.47048" lon="3.48605">
        <ele>28.272743</ele>
        <time>2020-06-01T15:19:36.024Z</time>
      </trkpt>
      <trkpt lat="50.47025" lon="3.48575">
        <ele>28.159486</ele>
        <time>2020-06-01T15:19:40.345Z</time>
      </trkpt>
      <trkpt lat="50.46952" lon="3.48448">
        <ele>27.575098</ele>
        <time>2020-06-01T15:19:54.589Z</time>
      </trkpt>
      <trkpt lat="50.46935" lon="3.48395">
        <ele>27.266766</ele>
        <time>2020-06-01T15:19:59.355Z</time>
      </trkpt>
      <trkpt lat="50.46907" lon="3.48316">
        <ele>26.800592</ele>
        <time>2020-06-01T15:20:06.551Z</time>
      </trkpt>
      <trkpt lat="50.46898" lon="3.48284">
        <ele>26.619828</ele>
        <time>2020-06-01T15:20:09.251Z</time>
      </trkpt>
      <trkpt lat="50.46896" lon="3.4827">
        <ele>26.542861</ele>
        <time>2020-06-01T15:20:10.424Z</time>
      </trkpt>
      <trkpt lat="50.46895" lon="3.48256">
        <ele>26.469516</ele>
        <time>2020-06-01T15:20:11.576Z</time>
      </trkpt>
      <trkpt lat="50.46896" lon="3.48242">
        <ele>26.393887</ele>
        <time>2020-06-01T15:20:12.626Z</time>
      </trkpt>
      <trkpt lat="50.46883" lon="3.48246">
        <ele>26.277926</ele>
        <time>2020-06-01T15:20:14.170Z</time>
      </trkpt>
      <trkpt lat="50.4688" lon="3.48246">
        <ele>26.253664</ele>
        <time>2020-06-01T15:20:14.506Z</time>
      </trkpt>
      <trkpt lat="50.46873" lon="3.48247">
        <ele>26.189927</ele>
        <time>2020-06-01T15:20:15.408Z</time>
      </trkpt>
      <trkpt lat="50.46852" lon="3.48266">
        <ele>25.969549</ele>
        <time>2020-06-01T15:20:18.318Z</time>
      </trkpt>
      <trkpt lat="50.46818" lon="3.48313">
        <ele>25.565845</ele>
        <time>2020-06-01T15:20:23.735Z</time>
      </trkpt>
      <trkpt lat="50.46627" lon="3.48616">
        <ele>23.630126</ele>
        <time>2020-06-01T15:20:58.655Z</time>
      </trkpt>
      <trkpt lat="50.46359" lon="3.48976">
        <ele>22.928624</ele>
        <time>2020-06-01T15:21:48.630Z</time>
      </trkpt>
      <trkpt lat="50.463" lon="3.49078">
        <ele>23.255903</ele>
        <time>2020-06-01T15:22:02.578Z</time>
      </trkpt>
      <trkpt lat="50.46244" lon="3.49201">
        <ele>23.632842</ele>
        <time>2020-06-01T15:22:18.800Z</time>
      </trkpt>
      <trkpt lat="50.46123" lon="3.4931">
        <ele>24.538236</ele>
        <time>2020-06-01T15:22:43.274Z</time>
      </trkpt>
      <trkpt lat="50.46053" lon="3.49408">
        <ele>25.118592</ele>
        <time>2020-06-01T15:22:59.979Z</time>
      </trkpt>
      <trkpt lat="50.46005" lon="3.49475">
        <ele>25.504395</ele>
        <time>2020-06-01T15:23:10.939Z</time>
      </trkpt>
      <trkpt lat="50.45997" lon="3.49488">
        <ele>25.573167</ele>
        <time>2020-06-01T15:23:13.006Z</time>
      </trkpt>
      <trkpt lat="50.45995" lon="3.49494">
        <ele>25.598973</ele>
        <time>2020-06-01T15:23:13.718Z</time>
      </trkpt>
      <trkpt lat="50.45992" lon="3.49497">
        <ele>25.6198</ele>
        <time>2020-06-01T15:23:14.285Z</time>
      </trkpt>
      <trkpt lat="50.4599" lon="3.49496">
        <ele>25.628736</ele>
        <time>2020-06-01T15:23:14.504Z</time>
      </trkpt>
      <trkpt lat="50.45989" lon="3.49496">
        <ele>25.637168</ele>
        <time>2020-06-01T15:23:14.722Z</time>
      </trkpt>
      <trkpt lat="50.45987" lon="3.49496">
        <ele>25.646954</ele>
        <time>2020-06-01T15:23:14.983Z</time>
      </trkpt>
      <trkpt lat="50.45986" lon="3.49497">
        <ele>25.656908</ele>
        <time>2020-06-01T15:23:15.252Z</time>
      </trkpt>
      <trkpt lat="50.45985" lon="3.495">
        <ele>25.666922</ele>
        <time>2020-06-01T15:23:15.521Z</time>
      </trkpt>
      <trkpt lat="50.45984" lon="3.49502">
        <ele>25.676203</ele>
        <time>2020-06-01T15:23:15.788Z</time>
      </trkpt>
      <trkpt lat="50.45984" lon="3.49504">
        <ele>25.685367</ele>
        <time>2020-06-01T15:23:16.041Z</time>
      </trkpt>
      <trkpt lat="50.45985" lon="3.49507">
        <ele>25.694472</ele>
        <time>2020-06-01T15:23:16.316Z</time>
      </trkpt>
      <trkpt lat="50.45986" lon="3.49509">
        <ele>25.704183</ele>
        <time>2020-06-01T15:23:16.587Z</time>
      </trkpt>
      <trkpt lat="50.45987" lon="3.4951">
        <ele>25.713149</ele>
        <time>2020-06-01T15:23:16.857Z</time>
      </trkpt>
      <trkpt lat="50.45989" lon="3.49518">
        <ele>25.747959</ele>
        <time>2020-06-01T15:23:17.907Z</time>
      </trkpt>
      <trkpt lat="50.45991" lon="3.49526">
        <ele>25.779079</ele>
        <time>2020-06-01T15:23:18.843Z</time>
      </trkpt>
      <trkpt lat="50.46009" lon="3.49667">
        <ele>26.198525</ele>
        <time>2020-06-01T15:23:34.076Z</time>
      </trkpt>
      <trkpt lat="50.46016" lon="3.49739">
        <ele>26.402867</ele>
        <time>2020-06-01T15:23:41.903Z</time>
      </trkpt>
      <trkpt lat="50.46013" lon="3.49779">
        <ele>26.518047</ele>
        <time>2020-06-01T15:23:46.210Z</time>
      </trkpt>
      <trkpt lat="50.45955" lon="3.50033">
        <ele>26.913326</ele>
        <time>2020-06-01T15:24:13.253Z</time>
      </trkpt>
      <trkpt lat="50.45941" lon="3.50087">
        <ele>26.983906</ele>
        <time>2020-06-01T15:24:18.762Z</time>
      </trkpt>
      <trkpt lat="50.4589" lon="3.50312">
        <ele>27.187374</ele>
        <time>2020-06-01T15:24:41.413Z</time>
      </trkpt>
      <trkpt lat="50.4577" lon="3.5083">
        <ele>28.859022</ele>
        <time>2020-06-01T15:25:42.046Z</time>
      </trkpt>
      <trkpt lat="50.45749" lon="3.50921">
        <ele>28.912899</ele>
        <time>2020-06-01T15:25:51.268Z</time>
      </trkpt>
      <trkpt lat="50.4572" lon="3.51037">
        <ele>28.639484</ele>
        <time>2020-06-01T15:26:02.126Z</time>
      </trkpt>
      <trkpt lat="50.45666" lon="3.51274">
        <ele>27.894856</ele>
        <time>2020-06-01T15:26:23.008Z</time>
      </trkpt>
      <trkpt lat="50.45649" lon="3.51328">
        <ele>27.67759</ele>
        <time>2020-06-01T15:26:28.122Z</time>
      </trkpt>
      <trkpt lat="50.45626" lon="3.51375">
        <ele>27.46117</ele>
        <time>2020-06-01T15:26:33.149Z</time>
      </trkpt>
      <trkpt lat="50.45601" lon="3.51427">
        <ele>27.165588</ele>
        <time>2020-06-01T15:26:38.574Z</time>
      </trkpt>
      <trkpt lat="50.45583" lon="3.51477">
        <ele>26.863807</ele>
        <time>2020-06-01T15:26:43.351Z</time>
      </trkpt>
      <trkpt lat="50.45569" lon="3.51518">
        <ele>26.622448</ele>
        <time>2020-06-01T15:26:47.088Z</time>
      </trkpt>
      <trkpt lat="50.4553" lon="3.5162">
        <ele>26.001392</ele>
        <time>2020-06-01T15:26:56.572Z</time>
      </trkpt>
      <trkpt lat="50.45485" lon="3.51712">
        <ele>25.088459</ele>
        <time>2020-06-01T15:27:05.397Z</time>
      </trkpt>
      <trkpt lat="50.45478" lon="3.51791">
        <ele>24.420869</ele>
        <time>2020-06-01T15:27:11.400Z</time>
      </trkpt>
      <trkpt lat="50.45466" lon="3.51901">
        <ele>23.478244</ele>
        <time>2020-06-01T15:27:19.577Z</time>
      </trkpt>
      <trkpt lat="50.45462" lon="3.51929">
        <ele>23.200971</ele>
        <time>2020-06-01T15:27:21.695Z</time>
      </trkpt>
      <trkpt lat="50.45457" lon="3.51957">
        <ele>22.93205</ele>
        <time>2020-06-01T15:27:23.768Z</time>
      </trkpt>
      <trkpt lat="50.45453" lon="3.51955">
        <ele>22.881225</ele>
        <time>2020-06-01T15:27:24.320Z</time>
      </trkpt>
      <trkpt lat="50.45427" lon="3.52007">
        <ele>22.260686</ele>
        <time>2020-06-01T15:27:31.123Z</time>
      </trkpt>
      <trkpt lat="50.45429" lon="3.52011">
        <ele>22.213271</ele>
        <time>2020-06-01T15:27:31.619Z</time>
      </trkpt>
      <trkpt lat="50.45404" lon="3.52042">
        <ele>21.742573</ele>
        <time>2020-06-01T15:27:36.772Z</time>
      </trkpt>
      <trkpt lat="50.45298" lon="3.5221">
        <ele>20.47479</ele>
        <time>2020-06-01T15:28:02.165Z</time>
      </trkpt>
      <trkpt lat="50.45268" lon="3.52254">
        <ele>20.304728</ele>
        <time>2020-06-01T15:28:10.487Z</time>
      </trkpt>
      <trkpt lat="50.45198" lon="3.52351">
        <ele>20.396987</ele>
        <time>2020-06-01T15:28:32.534Z</time>
      </trkpt>
      <trkpt lat="50.45145" lon="3.52424">
        <ele>20.854671</ele>
        <time>2020-06-01T15:28:48.931Z</time>
      </trkpt>
      <trkpt lat="50.45125" lon="3.52455">
        <ele>21.038268</ele>
        <time>2020-06-01T15:28:55.454Z</time>
      </trkpt>
      <trkpt lat="50.45102" lon="3.52431">
        <ele>21.219427</ele>
        <time>2020-06-01T15:29:01.366Z</time>
      </trkpt>
      <trkpt lat="50.44987" lon="3.52304">
        <ele>21.962359</ele>
        <time>2020-06-01T15:29:32.654Z</time>
      </trkpt>
      <trkpt lat="50.44947" lon="3.52384">
        <ele>22.490696</ele>
        <time>2020-06-01T15:29:46.616Z</time>
      </trkpt>
      <trkpt lat="50.44932" lon="3.52404">
        <ele>22.841088</ele>
        <time>2020-06-01T15:29:51.363Z</time>
      </trkpt>
      <trkpt lat="50.44908" lon="3.52397">
        <ele>23.265666</ele>
        <time>2020-06-01T15:29:57.276Z</time>
      </trkpt>
      <trkpt lat="50.44266" lon="3.51924">
        <ele>35.934622</ele>
        <time>2020-06-01T15:33:13.567Z</time>
      </trkpt>
      <trkpt lat="50.44242" lon="3.51914">
        <ele>36.439107</ele>
        <time>2020-06-01T15:33:20.719Z</time>
      </trkpt>
      <trkpt lat="50.4423" lon="3.51916">
        <ele>36.697156</ele>
        <time>2020-06-01T15:33:26.587Z</time>
      </trkpt>
      <trkpt lat="50.44209" lon="3.51939">
        <ele>37.224956</ele>
        <time>2020-06-01T15:33:33.608Z</time>
      </trkpt>
      <trkpt lat="50.44201" lon="3.5195">
        <ele>37.429793</ele>
        <time>2020-06-01T15:33:38.682Z</time>
      </trkpt>
      <trkpt lat="50.442" lon="3.51942">
        <ele>37.532206</ele>
        <time>2020-06-01T15:33:40.040Z</time>
      </trkpt>
      <trkpt lat="50.4393" lon="3.51255">
        <ele>39.805793</ele>
        <time>2020-06-01T15:35:33.933Z</time>
      </trkpt>
      <trkpt lat="50.43688" lon="3.50634">
        <ele>31.661603</ele>
        <time>2020-06-01T15:36:47.153Z</time>
      </trkpt>
      <trkpt lat="50.43687" lon="3.50623">
        <ele>31.543384</ele>
        <time>2020-06-01T15:36:48.175Z</time>
      </trkpt>
      <trkpt lat="50.43703" lon="3.50602">
        <ele>31.189894</ele>
        <time>2020-06-01T15:36:51.416Z</time>
      </trkpt>
      <trkpt lat="50.43794" lon="3.50441">
        <ele>29.131104</ele>
        <time>2020-06-01T15:37:13.664Z</time>
      </trkpt>
      <trkpt lat="50.43794" lon="3.50441">
        <ele>29.131104</ele>
        <time>2020-06-01T15:37:13.666Z</time>
      </trkpt>
      <trkpt lat="50.43803" lon="3.50429">
        <ele>29.157929</ele>
        <time>2020-06-01T15:37:15.710Z</time>
      </trkpt>
      <trkpt lat="50.43983" lon="3.49526">
        <ele>31.053494</ele>
        <time>2020-06-01T15:39:28.515Z</time>
      </trkpt>
      <trkpt lat="50.44009" lon="3.49387">
        <ele>31.401231</ele>
        <time>2020-06-01T15:39:48.575Z</time>
      </trkpt>
      <trkpt lat="50.44064" lon="3.49097">
        <ele>31.238818</ele>
        <time>2020-06-01T15:40:27.910Z</time>
      </trkpt>
      <trkpt lat="50.44068" lon="3.49078">
        <ele>31.135983</ele>
        <time>2020-06-01T15:40:30.133Z</time>
      </trkpt>
      <trkpt lat="50.44113" lon="3.48863">
        <ele>29.922786</ele>
        <time>2020-06-01T15:40:55.231Z</time>
      </trkpt>
      <trkpt lat="50.44139" lon="3.48739">
        <ele>29.086428</ele>
        <time>2020-06-01T15:41:09.291Z</time>
      </trkpt>
      <trkpt lat="50.44284" lon="3.48004">
        <ele>24.192395</ele>
        <time>2020-06-01T15:42:34.749Z</time>
      </trkpt>
      <trkpt lat="50.44287" lon="3.47989">
        <ele>24.127989</ele>
        <time>2020-06-01T15:42:36.527Z</time>
      </trkpt>
      <trkpt lat="50.44293" lon="3.47958">
        <ele>23.997745</ele>
        <time>2020-06-01T15:42:40.172Z</time>
      </trkpt>
      <trkpt lat="50.44287" lon="3.47965">
        <ele>23.951747</ele>
        <time>2020-06-01T15:42:40.989Z</time>
      </trkpt>
      <trkpt lat="50.44124" lon="3.4799">
        <ele>23.498798</ele>
        <time>2020-06-01T15:43:02.831Z</time>
      </trkpt>
      <trkpt lat="50.43654" lon="3.48056">
        <ele>26.715671</ele>
        <time>2020-06-01T15:44:28.975Z</time>
      </trkpt>
      <trkpt lat="50.43294" lon="3.48105">
        <ele>26.988319</ele>
        <time>2020-06-01T15:45:21.771Z</time>
      </trkpt>
      <trkpt lat="50.43274" lon="3.48103">
        <ele>27.000906</ele>
        <time>2020-06-01T15:45:25.050Z</time>
      </trkpt>
      <trkpt lat="50.43265" lon="3.48098">
        <ele>27.082499</ele>
        <time>2020-06-01T15:45:26.571Z</time>
      </trkpt>
      <trkpt lat="50.4326" lon="3.48092">
        <ele>27.146238</ele>
        <time>2020-06-01T15:45:27.522Z</time>
      </trkpt>
      <trkpt lat="50.43255" lon="3.48082">
        <ele>27.232763</ele>
        <time>2020-06-01T15:45:28.866Z</time>
      </trkpt>
      <trkpt lat="50.43251" lon="3.48072">
        <ele>27.307634</ele>
        <time>2020-06-01T15:45:30.262Z</time>
      </trkpt>
      <trkpt lat="50.4324" lon="3.47903">
        <ele>28.420505</ele>
        <time>2020-06-01T15:45:50.866Z</time>
      </trkpt>
      <trkpt lat="50.43218" lon="3.47803">
        <ele>29.13877</ele>
        <time>2020-06-01T15:46:05.690Z</time>
      </trkpt>
      <trkpt lat="50.43184" lon="3.47597">
        <ele>30.65905</ele>
        <time>2020-06-01T15:46:33.309Z</time>
      </trkpt>
      <trkpt lat="50.43163" lon="3.47279">
        <ele>30.269414</ele>
        <time>2020-06-01T15:47:01.115Z</time>
      </trkpt>
      <trkpt lat="50.43136" lon="3.47204">
        <ele>29.868582</ele>
        <time>2020-06-01T15:47:07.843Z</time>
      </trkpt>
      <trkpt lat="50.43126" lon="3.47189">
        <ele>29.768068</ele>
        <time>2020-06-01T15:47:09.416Z</time>
      </trkpt>
      <trkpt lat="50.43178" lon="3.47063">
        <ele>29.065671</ele>
        <time>2020-06-01T15:47:21.566Z</time>
      </trkpt>
      <trkpt lat="50.43286" lon="3.46805">
        <ele>28.779223</ele>
        <time>2020-06-01T15:47:49.302Z</time>
      </trkpt>
      <trkpt lat="50.4332" lon="3.46722">
        <ele>29.455679</ele>
        <time>2020-06-01T15:48:00.540Z</time>
      </trkpt>
      <trkpt lat="50.43343" lon="3.46667">
        <ele>29.902813</ele>
        <time>2020-06-01T15:48:08.942Z</time>
      </trkpt>
      <trkpt lat="50.43374" lon="3.46594">
        <ele>30.506684</ele>
        <time>2020-06-01T15:48:20.242Z</time>
      </trkpt>
      <trkpt lat="50.4338" lon="3.46585">
        <ele>30.59214</ele>
        <time>2020-06-01T15:48:21.980Z</time>
      </trkpt>
      <trkpt lat="50.43393" lon="3.46579">
        <ele>30.784114</ele>
        <time>2020-06-01T15:48:25.267Z</time>
      </trkpt>
      <trkpt lat="50.4346" lon="3.46592">
        <ele>31.806843</ele>
        <time>2020-06-01T15:48:40.139Z</time>
      </trkpt>
      <trkpt lat="50.43489" lon="3.46569">
        <ele>32.313196</ele>
        <time>2020-06-01T15:48:47.458Z</time>
      </trkpt>
      <trkpt lat="50.43513" lon="3.46523">
        <ele>32.88519</ele>
        <time>2020-06-01T15:48:55.197Z</time>
      </trkpt>
      <trkpt lat="50.43524" lon="3.46483">
        <ele>33.306386</ele>
        <time>2020-06-01T15:49:00.994Z</time>
      </trkpt>
      <trkpt lat="50.43536" lon="3.46322">
        <ele>33.878424</ele>
        <time>2020-06-01T15:49:19.309Z</time>
      </trkpt>
      <trkpt lat="50.4354" lon="3.46303">
        <ele>33.939908</ele>
        <time>2020-06-01T15:49:20.913Z</time>
      </trkpt>
      <trkpt lat="50.4354" lon="3.46303">
        <ele>33.939908</ele>
        <time>2020-06-01T15:49:20.948Z</time>
      </trkpt>
      <trkpt lat="50.4354" lon="3.46303">
        <ele>33.939908</ele>
        <time>2020-06-01T15:49:20.967Z</time>
      </trkpt>
      <trkpt lat="50.43542" lon="3.46289">
        <ele>33.985793</ele>
        <time>2020-06-01T15:49:22.868Z</time>
      </trkpt>
      <trkpt lat="50.43597" lon="3.4606">
        <ele>33.995622</ele>
        <time>2020-06-01T15:49:46.146Z</time>
      </trkpt>
      <trkpt lat="50.43601" lon="3.46006">
        <ele>33.891112</ele>
        <time>2020-06-01T15:49:50.946Z</time>
      </trkpt>
      <trkpt lat="50.43607" lon="3.45893">
        <ele>33.483248</ele>
        <time>2020-06-01T15:50:00.109Z</time>
      </trkpt>
      <trkpt lat="50.4361" lon="3.45755">
        <ele>32.480957</ele>
        <time>2020-06-01T15:50:10.449Z</time>
      </trkpt>
      <trkpt lat="50.43611" lon="3.45705">
        <ele>32.119061</ele>
        <time>2020-06-01T15:50:14.250Z</time>
      </trkpt>
      <trkpt lat="50.43612" lon="3.45671">
        <ele>31.879944</ele>
        <time>2020-06-01T15:50:16.835Z</time>
      </trkpt>
      <trkpt lat="50.43616" lon="3.45646">
        <ele>31.694097</ele>
        <time>2020-06-01T15:50:18.870Z</time>
      </trkpt>
      <trkpt lat="50.43625" lon="3.45608">
        <ele>31.480206</ele>
        <time>2020-06-01T15:50:21.999Z</time>
      </trkpt>
      <trkpt lat="50.43644" lon="3.45529">
        <ele>31.027256</ele>
        <time>2020-06-01T15:50:28.715Z</time>
      </trkpt>
      <trkpt lat="50.43659" lon="3.45458">
        <ele>30.629442</ele>
        <time>2020-06-01T15:50:34.722Z</time>
      </trkpt>
      <trkpt lat="50.43689" lon="3.45318">
        <ele>29.558343</ele>
        <time>2020-06-01T15:50:47.078Z</time>
      </trkpt>
      <trkpt lat="50.43708" lon="3.45231">
        <ele>28.676321</ele>
        <time>2020-06-01T15:50:54.105Z</time>
      </trkpt>
      <trkpt lat="50.43716" lon="3.45204">
        <ele>28.38663</ele>
        <time>2020-06-01T15:50:56.174Z</time>
      </trkpt>
      <trkpt lat="50.4371" lon="3.45198">
        <ele>28.275432</ele>
        <time>2020-06-01T15:50:57.077Z</time>
      </trkpt>
      <trkpt lat="50.43679" lon="3.45166">
        <ele>27.726062</ele>
        <time>2020-06-01T15:51:01.074Z</time>
      </trkpt>
      <trkpt lat="50.43673" lon="3.4516">
        <ele>27.615894</ele>
        <time>2020-06-01T15:51:01.896Z</time>
      </trkpt>
      <trkpt lat="50.43655" lon="3.45143">
        <ele>27.163783</ele>
        <time>2020-06-01T15:51:04.066Z</time>
      </trkpt>
      <trkpt lat="50.43558" lon="3.45046">
        <ele>24.236403</ele>
        <time>2020-06-01T15:51:15.877Z</time>
      </trkpt>
      <trkpt lat="50.43489" lon="3.44978">
        <ele>22.791734</ele>
        <time>2020-06-01T15:51:24.637Z</time>
      </trkpt>
      <trkpt lat="50.43438" lon="3.44927">
        <ele>22.576001</ele>
        <time>2020-06-01T15:51:32.063Z</time>
      </trkpt>
      <trkpt lat="50.43297" lon="3.44785">
        <ele>22.859001</ele>
        <time>2020-06-01T15:52:02.704Z</time>
      </trkpt>
      <trkpt lat="50.42912" lon="3.44396">
        <ele>25.641324</ele>
        <time>2020-06-01T15:53:24.452Z</time>
      </trkpt>
      <trkpt lat="50.42907" lon="3.44391">
        <ele>25.607317</ele>
        <time>2020-06-01T15:53:25.216Z</time>
      </trkpt>
      <trkpt lat="50.42904" lon="3.44386">
        <ele>25.508206</ele>
        <time>2020-06-01T15:53:25.575Z</time>
      </trkpt>
      <trkpt lat="50.42906" lon="3.44345">
        <ele>24.838065</ele>
        <time>2020-06-01T15:53:28.698Z</time>
      </trkpt>
      <trkpt lat="50.42906" lon="3.44333">
        <ele>24.647413</ele>
        <time>2020-06-01T15:53:29.449Z</time>
      </trkpt>
      <trkpt lat="50.4292" lon="3.44112">
        <ele>21.040774</ele>
        <time>2020-06-01T15:53:43.895Z</time>
      </trkpt>
      <trkpt lat="50.42926" lon="3.44074">
        <ele>20.449235</ele>
        <time>2020-06-01T15:53:47.552Z</time>
      </trkpt>
      <trkpt lat="50.42928" lon="3.44051">
        <ele>20.092094</ele>
        <time>2020-06-01T15:53:49.725Z</time>
      </trkpt>
      <trkpt lat="50.42929" lon="3.44047">
        <ele>20.034538</ele>
        <time>2020-06-01T15:53:49.974Z</time>
      </trkpt>
      <trkpt lat="50.42932" lon="3.44037">
        <ele>19.857391</ele>
        <time>2020-06-01T15:53:50.754Z</time>
      </trkpt>
      <trkpt lat="50.42931" lon="3.44021">
        <ele>19.620904</ele>
        <time>2020-06-01T15:53:51.825Z</time>
      </trkpt>
      <trkpt lat="50.42928" lon="3.4401">
        <ele>19.442197</ele>
        <time>2020-06-01T15:53:52.597Z</time>
      </trkpt>
      <trkpt lat="50.42926" lon="3.44008">
        <ele>19.383248</ele>
        <time>2020-06-01T15:53:52.853Z</time>
      </trkpt>
      <trkpt lat="50.42925" lon="3.43998">
        <ele>19.231417</ele>
        <time>2020-06-01T15:53:53.504Z</time>
      </trkpt>
      <trkpt lat="50.42927" lon="3.43972">
        <ele>18.835272</ele>
        <time>2020-06-01T15:53:55.314Z</time>
      </trkpt>
      <trkpt lat="50.42935" lon="3.43956">
        <ele>18.520669</ele>
        <time>2020-06-01T15:53:56.706Z</time>
      </trkpt>
      <trkpt lat="50.42995" lon="3.43894">
        <ele>16.82821</ele>
        <time>2020-06-01T15:54:04.547Z</time>
      </trkpt>
      <trkpt lat="50.43004" lon="3.43883">
        <ele>16.72523</ele>
        <time>2020-06-01T15:54:05.882Z</time>
      </trkpt>
      <trkpt lat="50.43013" lon="3.43873">
        <ele>16.653535</ele>
        <time>2020-06-01T15:54:07.252Z</time>
      </trkpt>
      <trkpt lat="50.43043" lon="3.43837">
        <ele>16.40318</ele>
        <time>2020-06-01T15:54:11.947Z</time>
      </trkpt>
      <trkpt lat="50.43047" lon="3.43833">
        <ele>16.374379</ele>
        <time>2020-06-01T15:54:12.500Z</time>
      </trkpt>
      <trkpt lat="50.43052" lon="3.43828">
        <ele>16.335135</ele>
        <time>2020-06-01T15:54:13.344Z</time>
      </trkpt>
      <trkpt lat="50.43044" lon="3.43809">
        <ele>16.241219</ele>
        <time>2020-06-01T15:54:15.924Z</time>
      </trkpt>
      <trkpt lat="50.43041" lon="3.43734">
        <ele>15.924083</ele>
        <time>2020-06-01T15:54:25.183Z</time>
      </trkpt>
      <trkpt lat="50.43024" lon="3.43624">
        <ele>15.577847</ele>
        <time>2020-06-01T15:54:39.283Z</time>
      </trkpt>
      <trkpt lat="50.43024" lon="3.43609">
        <ele>15.565936</ele>
        <time>2020-06-01T15:54:41.244Z</time>
      </trkpt>
      <trkpt lat="50.43027" lon="3.43563">
        <ele>15.52987</ele>
        <time>2020-06-01T15:54:46.990Z</time>
      </trkpt>
      <trkpt lat="50.43028" lon="3.43555">
        <ele>15.523612</ele>
        <time>2020-06-01T15:54:48.010Z</time>
      </trkpt>
      <trkpt lat="50.43029" lon="3.43537">
        <ele>15.508979</ele>
        <time>2020-06-01T15:54:50.518Z</time>
      </trkpt>
      <trkpt lat="50.43034" lon="3.43431">
        <ele>15.425019</ele>
        <time>2020-06-01T15:55:04.021Z</time>
      </trkpt>
      <trkpt lat="50.43051" lon="3.43035">
        <ele>14.874334</ele>
        <time>2020-06-01T15:55:52.856Z</time>
      </trkpt>
      <trkpt lat="50.43131" lon="3.42791">
        <ele>14.646683</ele>
        <time>2020-06-01T15:56:27.906Z</time>
      </trkpt>
      <trkpt lat="50.43137" lon="3.42782">
        <ele>14.636502</ele>
        <time>2020-06-01T15:56:29.751Z</time>
      </trkpt>
      <trkpt lat="50.43135" lon="3.42773">
        <ele>14.62898</ele>
        <time>2020-06-01T15:56:30.424Z</time>
      </trkpt>
      <trkpt lat="50.43102" lon="3.42618">
        <ele>14.496097</ele>
        <time>2020-06-01T15:56:44.964Z</time>
      </trkpt>
      <trkpt lat="50.4305" lon="3.42343">
        <ele>14.951882</ele>
        <time>2020-06-01T15:57:12.886Z</time>
      </trkpt>
      <trkpt lat="50.4301" lon="3.42135">
        <ele>16.54329</ele>
        <time>2020-06-01T15:57:40.511Z</time>
      </trkpt>
      <trkpt lat="50.42918" lon="3.41683">
        <ele>20.916909</ele>
        <time>2020-06-01T15:58:45.782Z</time>
      </trkpt>
      <trkpt lat="50.4289" lon="3.41509">
        <ele>21.939368</ele>
        <time>2020-06-01T15:59:05.686Z</time>
      </trkpt>
      <trkpt lat="50.42885" lon="3.41471">
        <ele>21.885483</ele>
        <time>2020-06-01T15:59:09.521Z</time>
      </trkpt>
      <trkpt lat="50.42881" lon="3.41438">
        <ele>21.72295</ele>
        <time>2020-06-01T15:59:12.631Z</time>
      </trkpt>
      <trkpt lat="50.42873" lon="3.41356">
        <ele>21.320964</ele>
        <time>2020-06-01T15:59:19.377Z</time>
      </trkpt>
      <trkpt lat="50.42841" lon="3.41187">
        <ele>20.27263</ele>
        <time>2020-06-01T15:59:32.805Z</time>
      </trkpt>
      <trkpt lat="50.4284" lon="3.41173">
        <ele>20.134187</ele>
        <time>2020-06-01T15:59:33.763Z</time>
      </trkpt>
      <trkpt lat="50.42837" lon="3.41157">
        <ele>19.965253</ele>
        <time>2020-06-01T15:59:35.096Z</time>
      </trkpt>
      <trkpt lat="50.42836" lon="3.41154">
        <ele>19.929866</ele>
        <time>2020-06-01T15:59:35.335Z</time>
      </trkpt>
      <trkpt lat="50.42834" lon="3.41137">
        <ele>19.756245</ele>
        <time>2020-06-01T15:59:36.635Z</time>
      </trkpt>
      <trkpt lat="50.42832" lon="3.41132">
        <ele>19.707899</ele>
        <time>2020-06-01T15:59:36.959Z</time>
      </trkpt>
      <trkpt lat="50.42822" lon="3.41087">
        <ele>19.228276</ele>
        <time>2020-06-01T15:59:40.404Z</time>
      </trkpt>
      <trkpt lat="50.42774" lon="3.40962">
        <ele>17.77494</ele>
        <time>2020-06-01T15:59:50.886Z</time>
      </trkpt>
      <trkpt lat="50.42769" lon="3.4095">
        <ele>17.682673</ele>
        <time>2020-06-01T15:59:51.908Z</time>
      </trkpt>
      <trkpt lat="50.4275" lon="3.40908">
        <ele>17.350288</ele>
        <time>2020-06-01T15:59:55.814Z</time>
      </trkpt>
      <trkpt lat="50.42706" lon="3.40784">
        <ele>16.424217</ele>
        <time>2020-06-01T16:00:07.114Z</time>
      </trkpt>
      <trkpt lat="50.42692" lon="3.40753">
        <ele>16.183534</ele>
        <time>2020-06-01T16:00:10.047Z</time>
      </trkpt>
      <trkpt lat="50.42612" lon="3.4063">
        <ele>15.35295</ele>
        <time>2020-06-01T16:00:24.492Z</time>
      </trkpt>
      <trkpt lat="50.42583" lon="3.40595">
        <ele>15.105227</ele>
        <time>2020-06-01T16:00:29.210Z</time>
      </trkpt>
      <trkpt lat="50.42553" lon="3.40572">
        <ele>14.880151</ele>
        <time>2020-06-01T16:00:33.469Z</time>
      </trkpt>
      <trkpt lat="50.42537" lon="3.40559">
        <ele>14.757932</ele>
        <time>2020-06-01T16:00:35.797Z</time>
      </trkpt>
      <trkpt lat="50.42521" lon="3.40552">
        <ele>14.715772</ele>
        <time>2020-06-01T16:00:37.977Z</time>
      </trkpt>
      <trkpt lat="50.42482" lon="3.40542">
        <ele>14.618724</ele>
        <time>2020-06-01T16:00:43.124Z</time>
      </trkpt>
      <trkpt lat="50.42457" lon="3.40539">
        <ele>14.557551</ele>
        <time>2020-06-01T16:00:46.583Z</time>
      </trkpt>
      <trkpt lat="50.42425" lon="3.40544">
        <ele>14.479319</ele>
        <time>2020-06-01T16:00:51.072Z</time>
      </trkpt>
      <trkpt lat="50.4236" lon="3.40564">
        <ele>14.318277</ele>
        <time>2020-06-01T16:01:00.792Z</time>
      </trkpt>
      <trkpt lat="50.42335" lon="3.40575">
        <ele>14.567456</ele>
        <time>2020-06-01T16:01:04.805Z</time>
      </trkpt>
      <trkpt lat="50.42321" lon="3.40582">
        <ele>14.709555</ele>
        <time>2020-06-01T16:01:07.371Z</time>
      </trkpt>
      <trkpt lat="50.42166" lon="3.40669">
        <ele>16.436349</ele>
        <time>2020-06-01T16:01:39.689Z</time>
      </trkpt>
      <trkpt lat="50.42126" lon="3.40683">
        <ele>17.053618</ele>
        <time>2020-06-01T16:01:48.402Z</time>
      </trkpt>
      <trkpt lat="50.42074" lon="3.40691">
        <ele>17.844458</ele>
        <time>2020-06-01T16:01:59.734Z</time>
      </trkpt>
      <trkpt lat="50.4206" lon="3.40693">
        <ele>18.052794</ele>
        <time>2020-06-01T16:02:02.696Z</time>
      </trkpt>
      <trkpt lat="50.42042" lon="3.40696">
        <ele>18.329111</ele>
        <time>2020-06-01T16:02:06.642Z</time>
      </trkpt>
      <trkpt lat="50.4199" lon="3.40707">
        <ele>18.939004</ele>
        <time>2020-06-01T16:02:17.791Z</time>
      </trkpt>
      <trkpt lat="50.41922" lon="3.40716">
        <ele>19.413555</ele>
        <time>2020-06-01T16:02:30.530Z</time>
      </trkpt>
      <trkpt lat="50.41878" lon="3.4072">
        <ele>19.722265</ele>
        <time>2020-06-01T16:02:37.162Z</time>
      </trkpt>
      <trkpt lat="50.41813" lon="3.4073">
        <ele>19.992114</ele>
        <time>2020-06-01T16:02:47.911Z</time>
      </trkpt>
      <trkpt lat="50.41806" lon="3.40731">
        <ele>19.979389</ele>
        <time>2020-06-01T16:02:48.892Z</time>
      </trkpt>
      <trkpt lat="50.41795" lon="3.40727">
        <ele>19.958593</ele>
        <time>2020-06-01T16:02:50.802Z</time>
      </trkpt>
      <trkpt lat="50.41783" lon="3.40703">
        <ele>19.922495</ele>
        <time>2020-06-01T16:02:55.657Z</time>
      </trkpt>
      <trkpt lat="50.41782" lon="3.40689">
        <ele>19.905752</ele>
        <time>2020-06-01T16:02:57.230Z</time>
      </trkpt>
      <trkpt lat="50.41787" lon="3.40667">
        <ele>19.878886</ele>
        <time>2020-06-01T16:02:59.764Z</time>
      </trkpt>
      <trkpt lat="50.41778" lon="3.40688">
        <ele>19.848955</ele>
        <time>2020-06-01T16:03:02.905Z</time>
      </trkpt>
      <trkpt lat="50.41765" lon="3.40712">
        <ele>19.812329</ele>
        <time>2020-06-01T16:03:05.256Z</time>
      </trkpt>
      <trkpt lat="50.41764" lon="3.4072">
        <ele>19.803193</ele>
        <time>2020-06-01T16:03:06.585Z</time>
      </trkpt>
      <trkpt lat="50.41767" lon="3.40726">
        <ele>19.793774</ele>
        <time>2020-06-01T16:03:07.513Z</time>
      </trkpt>
      <trkpt lat="50.41772" lon="3.40734">
        <ele>19.779954</ele>
        <time>2020-06-01T16:03:08.441Z</time>
      </trkpt>
      <trkpt lat="50.41772" lon="3.40734">
        <ele>19.779954</ele>
        <time>2020-06-01T16:03:08.481Z</time>
      </trkpt>
      <trkpt lat="50.41764" lon="3.40736">
        <ele>19.764672</ele>
        <time>2020-06-01T16:03:09.405Z</time>
      </trkpt>
      <trkpt lat="50.41748" lon="3.40736">
        <ele>19.736214</ele>
        <time>2020-06-01T16:03:11.640Z</time>
      </trkpt>
      <trkpt lat="50.41738" lon="3.40737">
        <ele>19.717463</ele>
        <time>2020-06-01T16:03:13.082Z</time>
      </trkpt>
      <trkpt lat="50.4169" lon="3.40738">
        <ele>19.483178</ele>
        <time>2020-06-01T16:03:18.907Z</time>
      </trkpt>
      <trkpt lat="50.41619" lon="3.40735">
        <ele>19.078642</ele>
        <time>2020-06-01T16:03:29.071Z</time>
      </trkpt>
      <trkpt lat="50.41619" lon="3.40735">
        <ele>19.078642</ele>
        <time>2020-06-01T16:03:29.074Z</time>
      </trkpt>
      <trkpt lat="50.416" lon="3.4073">
        <ele>18.973449</ele>
        <time>2020-06-01T16:03:31.435Z</time>
      </trkpt>
      <trkpt lat="50.41572" lon="3.40722">
        <ele>18.811833</ele>
        <time>2020-06-01T16:03:35.043Z</time>
      </trkpt>
      <trkpt lat="50.41562" lon="3.40718">
        <ele>18.755151</ele>
        <time>2020-06-01T16:03:36.245Z</time>
      </trkpt>
      <trkpt lat="50.4155" lon="3.40714">
        <ele>18.686517</ele>
        <time>2020-06-01T16:03:37.844Z</time>
      </trkpt>
      <trkpt lat="50.41578" lon="3.40641">
        <ele>18.513352</ele>
        <time>2020-06-01T16:03:47.789Z</time>
      </trkpt>
      <trkpt lat="50.41667" lon="3.40455">
        <ele>18.020762</ele>
        <time>2020-06-01T16:04:16.971Z</time>
      </trkpt>
      <trkpt lat="50.41653" lon="3.40436">
        <ele>17.944386</ele>
        <time>2020-06-01T16:04:19.749Z</time>
      </trkpt>
      <trkpt lat="50.41519" lon="3.40218">
        <ele>17.178016</ele>
        <time>2020-06-01T16:04:45.485Z</time>
      </trkpt>
      <trkpt lat="50.41512" lon="3.40197">
        <ele>17.122699</ele>
        <time>2020-06-01T16:04:47.357Z</time>
      </trkpt>
      <trkpt lat="50.415" lon="3.4014">
        <ele>16.981207</ele>
        <time>2020-06-01T16:04:52.451Z</time>
      </trkpt>
      <trkpt lat="50.41489" lon="3.40064">
        <ele>16.797879</ele>
        <time>2020-06-01T16:04:59.401Z</time>
      </trkpt>
      <trkpt lat="50.41471" lon="3.39998">
        <ele>16.756851</ele>
        <time>2020-06-01T16:05:06.010Z</time>
      </trkpt>
      <trkpt lat="50.41442" lon="3.39906">
        <ele>16.867842</ele>
        <time>2020-06-01T16:05:16.190Z</time>
      </trkpt>
      <trkpt lat="50.41439" lon="3.39875">
        <ele>16.901126</ele>
        <time>2020-06-01T16:05:19.488Z</time>
      </trkpt>
      <trkpt lat="50.41467" lon="3.39611">
        <ele>17.120011</ele>
        <time>2020-06-01T16:05:46.293Z</time>
      </trkpt>
      <trkpt lat="50.41482" lon="3.39488">
        <ele>17.198854</ele>
        <time>2020-06-01T16:05:58.201Z</time>
      </trkpt>
      <trkpt lat="50.41488" lon="3.39439">
        <ele>17.208085</ele>
        <time>2020-06-01T16:06:02.949Z</time>
      </trkpt>
      <trkpt lat="50.41502" lon="3.39314">
        <ele>17.23031</ele>
        <time>2020-06-01T16:06:14.934Z</time>
      </trkpt>
      <trkpt lat="50.41511" lon="3.3925">
        <ele>17.241719</ele>
        <time>2020-06-01T16:06:21.299Z</time>
      </trkpt>
      <trkpt lat="50.41512" lon="3.39237">
        <ele>17.243997</ele>
        <time>2020-06-01T16:06:22.534Z</time>
      </trkpt>
      <trkpt lat="50.41527" lon="3.3918">
        <ele>17.255019</ele>
        <time>2020-06-01T16:06:28.718Z</time>
      </trkpt>
      <trkpt lat="50.4163" lon="3.38996">
        <ele>17.299758</ele>
        <time>2020-06-01T16:06:51.753Z</time>
      </trkpt>
      <trkpt lat="50.41633" lon="3.38991">
        <ele>17.304845</ele>
        <time>2020-06-01T16:06:52.375Z</time>
      </trkpt>
      <trkpt lat="50.41644" lon="3.38966">
        <ele>17.343331</ele>
        <time>2020-06-01T16:06:55.052Z</time>
      </trkpt>
      <trkpt lat="50.41655" lon="3.38938">
        <ele>17.386388</ele>
        <time>2020-06-01T16:06:58.126Z</time>
      </trkpt>
      <trkpt lat="50.41668" lon="3.38876">
        <ele>17.471597</ele>
        <time>2020-06-01T16:07:04.472Z</time>
      </trkpt>
      <trkpt lat="50.41683" lon="3.38779">
        <ele>17.601329</ele>
        <time>2020-06-01T16:07:14.810Z</time>
      </trkpt>
      <trkpt lat="50.41693" lon="3.38735">
        <ele>17.663195</ele>
        <time>2020-06-01T16:07:19.770Z</time>
      </trkpt>
      <trkpt lat="50.41711" lon="3.38698">
        <ele>17.796371</ele>
        <time>2020-06-01T16:07:24.625Z</time>
      </trkpt>
      <trkpt lat="50.41725" lon="3.38688">
        <ele>17.870001</ele>
        <time>2020-06-01T16:07:27.423Z</time>
      </trkpt>
      <trkpt lat="50.41739" lon="3.38687">
        <ele>17.938887</ele>
        <time>2020-06-01T16:07:29.733Z</time>
      </trkpt>
      <trkpt lat="50.418" lon="3.38696">
        <ele>18.230323</ele>
        <time>2020-06-01T16:07:40.252Z</time>
      </trkpt>
      <trkpt lat="50.41825" lon="3.38703">
        <ele>18.351726</ele>
        <time>2020-06-01T16:07:44.441Z</time>
      </trkpt>
      <trkpt lat="50.41898" lon="3.3872">
        <ele>18.63359</ele>
        <time>2020-06-01T16:07:56.501Z</time>
      </trkpt>
      <trkpt lat="50.41942" lon="3.38738">
        <ele>18.766359</ele>
        <time>2020-06-01T16:08:03.547Z</time>
      </trkpt>
      <trkpt lat="50.41942" lon="3.38738">
        <ele>18.766359</ele>
        <time>2020-06-01T16:08:03.549Z</time>
      </trkpt>
      <trkpt lat="50.41972" lon="3.38764">
        <ele>18.866842</ele>
        <time>2020-06-01T16:08:08.942Z</time>
      </trkpt>
      <trkpt lat="50.41986" lon="3.38766">
        <ele>18.90701</ele>
        <time>2020-06-01T16:08:11.132Z</time>
      </trkpt>
      <trkpt lat="50.42075" lon="3.38738">
        <ele>19.155375</ele>
        <time>2020-06-01T16:08:25.840Z</time>
      </trkpt>
      <trkpt lat="50.42089" lon="3.38737">
        <ele>19.190688</ele>
        <time>2020-06-01T16:08:28.163Z</time>
      </trkpt>
      <trkpt lat="50.42102" lon="3.38736">
        <ele>19.223412</ele>
        <time>2020-06-01T16:08:30.388Z</time>
      </trkpt>
      <trkpt lat="50.42138" lon="3.38742">
        <ele>19.313585</ele>
        <time>2020-06-01T16:08:36.310Z</time>
      </trkpt>
      <trkpt lat="50.42173" lon="3.38739">
        <ele>19.403369</ele>
        <time>2020-06-01T16:08:41.831Z</time>
      </trkpt>
      <trkpt lat="50.422" lon="3.38721">
        <ele>19.476012</ele>
        <time>2020-06-01T16:08:46.235Z</time>
      </trkpt>
      <trkpt lat="50.42251" lon="3.38693">
        <ele>19.339158</ele>
        <time>2020-06-01T16:08:54.415Z</time>
      </trkpt>
      <trkpt lat="50.42258" lon="3.38689">
        <ele>19.311443</ele>
        <time>2020-06-01T16:08:55.417Z</time>
      </trkpt>
      <trkpt lat="50.42283" lon="3.38673">
        <ele>19.207732</ele>
        <time>2020-06-01T16:08:59.258Z</time>
      </trkpt>
      <trkpt lat="50.42293" lon="3.38672">
        <ele>19.168164</ele>
        <time>2020-06-01T16:09:00.585Z</time>
      </trkpt>
      <trkpt lat="50.4231" lon="3.3867">
        <ele>19.106534</ele>
        <time>2020-06-01T16:09:02.737Z</time>
      </trkpt>
      <trkpt lat="50.42418" lon="3.38629">
        <ele>18.608177</ele>
        <time>2020-06-01T16:09:17.088Z</time>
      </trkpt>
      <trkpt lat="50.42441" lon="3.38625">
        <ele>18.475509</ele>
        <time>2020-06-01T16:09:19.955Z</time>
      </trkpt>
      <trkpt lat="50.42503" lon="3.38701">
        <ele>18.01822</ele>
        <time>2020-06-01T16:09:34.725Z</time>
      </trkpt>
      <trkpt lat="50.42525" lon="3.38725">
        <ele>17.859758</ele>
        <time>2020-06-01T16:09:39.611Z</time>
      </trkpt>
      <trkpt lat="50.4258" lon="3.388">
        <ele>17.415823</ele>
        <time>2020-06-01T16:09:52.735Z</time>
      </trkpt>
      <trkpt lat="50.42587" lon="3.38827">
        <ele>17.300509</ele>
        <time>2020-06-01T16:09:55.125Z</time>
      </trkpt>
      <trkpt lat="50.42588" lon="3.38843">
        <ele>17.237074</ele>
        <time>2020-06-01T16:09:56.398Z</time>
      </trkpt>
      <trkpt lat="50.42601" lon="3.38874">
        <ele>17.090118</ele>
        <time>2020-06-01T16:09:59.534Z</time>
      </trkpt>
      <trkpt lat="50.42605" lon="3.38872">
        <ele>17.064505</ele>
        <time>2020-06-01T16:10:00.192Z</time>
      </trkpt>
      <trkpt lat="50.42666" lon="3.38849">
        <ele>16.679356</ele>
        <time>2020-06-01T16:10:11.921Z</time>
      </trkpt>
      <trkpt lat="50.42691" lon="3.38841">
        <ele>16.651498</ele>
        <time>2020-06-01T16:10:16.736Z</time>
      </trkpt>
      <trkpt lat="50.42722" lon="3.3883">
        <ele>16.636515</ele>
        <time>2020-06-01T16:10:22.703Z</time>
      </trkpt>
      <trkpt lat="50.42783" lon="3.38802">
        <ele>16.606282</ele>
        <time>2020-06-01T16:10:35.458Z</time>
      </trkpt>
      <trkpt lat="50.42794" lon="3.38792">
        <ele>16.600177</ele>
        <time>2020-06-01T16:10:38.117Z</time>
      </trkpt>
      <trkpt lat="50.42805" lon="3.38782">
        <ele>16.594086</ele>
        <time>2020-06-01T16:10:40.955Z</time>
      </trkpt>
      <trkpt lat="50.42826" lon="3.38764">
        <ele>16.582807</ele>
        <time>2020-06-01T16:10:45.924Z</time>
      </trkpt>
      <trkpt lat="50.42832" lon="3.38759">
        <ele>16.579339</ele>
        <time>2020-06-01T16:10:47.554Z</time>
      </trkpt>
      <trkpt lat="50.4293" lon="3.38696">
        <ele>16.581441</ele>
        <time>2020-06-01T16:11:10.016Z</time>
      </trkpt>
      <trkpt lat="50.42996" lon="3.38661">
        <ele>16.584699</ele>
        <time>2020-06-01T16:11:23.356Z</time>
      </trkpt>
      <trkpt lat="50.43023" lon="3.38643">
        <ele>16.568126</ele>
        <time>2020-06-01T16:11:28.839Z</time>
      </trkpt>
      <trkpt lat="50.43101" lon="3.38561">
        <ele>16.485379</ele>
        <time>2020-06-01T16:11:46.682Z</time>
      </trkpt>
      <trkpt lat="50.43127" lon="3.38537">
        <ele>16.459058</ele>
        <time>2020-06-01T16:11:52.824Z</time>
      </trkpt>
      <trkpt lat="50.43176" lon="3.38515">
        <ele>16.491239</ele>
        <time>2020-06-01T16:12:04.092Z</time>
      </trkpt>
      <trkpt lat="50.43186" lon="3.38511">
        <ele>16.53921</ele>
        <time>2020-06-01T16:12:06.496Z</time>
      </trkpt>
      <trkpt lat="50.43204" lon="3.38505">
        <ele>16.625594</ele>
        <time>2020-06-01T16:12:09.745Z</time>
      </trkpt>
      <trkpt lat="50.43222" lon="3.385">
        <ele>16.708216</ele>
        <time>2020-06-01T16:12:12.790Z</time>
      </trkpt>
      <trkpt lat="50.43231" lon="3.38497">
        <ele>16.750258</ele>
        <time>2020-06-01T16:12:14.412Z</time>
      </trkpt>
      <trkpt lat="50.43272" lon="3.38484">
        <ele>16.943063</ele>
        <time>2020-06-01T16:12:21.571Z</time>
      </trkpt>
      <trkpt lat="50.43306" lon="3.38474">
        <ele>17.101298</ele>
        <time>2020-06-01T16:12:27.609Z</time>
      </trkpt>
      <trkpt lat="50.43313" lon="3.38493">
        <ele>17.166009</ele>
        <time>2020-06-01T16:12:29.872Z</time>
      </trkpt>
      <trkpt lat="50.4332" lon="3.38516">
        <ele>17.239073</ele>
        <time>2020-06-01T16:12:32.681Z</time>
      </trkpt>
      <trkpt lat="50.43325" lon="3.38529">
        <ele>17.237646</ele>
        <time>2020-06-01T16:12:34.265Z</time>
      </trkpt>
      <trkpt lat="50.43381" lon="3.38662">
        <ele>17.081876</ele>
        <time>2020-06-01T16:12:48.854Z</time>
      </trkpt>
      <trkpt lat="50.4344" lon="3.38752">
        <ele>16.952536</ele>
        <time>2020-06-01T16:12:59.677Z</time>
      </trkpt>
      <trkpt lat="50.43451" lon="3.38771">
        <ele>16.92163</ele>
        <time>2020-06-01T16:13:01.832Z</time>
      </trkpt>
      <trkpt lat="50.43483" lon="3.38827">
        <ele>16.830002</ele>
        <time>2020-06-01T16:13:08.733Z</time>
      </trkpt>
      <trkpt lat="50.43523" lon="3.38912">
        <ele>16.70413</ele>
        <time>2020-06-01T16:13:18.395Z</time>
      </trkpt>
      <trkpt lat="50.43537" lon="3.38963">
        <ele>16.637907</ele>
        <time>2020-06-01T16:13:23.555Z</time>
      </trkpt>
      <trkpt lat="50.43542" lon="3.39006">
        <ele>16.642771</ele>
        <time>2020-06-01T16:13:27.868Z</time>
      </trkpt>
      <trkpt lat="50.4354" lon="3.39079">
        <ele>16.657991</ele>
        <time>2020-06-01T16:13:34.883Z</time>
      </trkpt>
      <trkpt lat="50.43538" lon="3.39122">
        <ele>16.667039</ele>
        <time>2020-06-01T16:13:39.083Z</time>
      </trkpt>
      <trkpt lat="50.43537" lon="3.39148">
        <ele>16.672451</ele>
        <time>2020-06-01T16:13:41.544Z</time>
      </trkpt>
      <trkpt lat="50.4349" lon="3.39309">
        <ele>16.576987</ele>
        <time>2020-06-01T16:13:58.427Z</time>
      </trkpt>
      <trkpt lat="50.43486" lon="3.39331">
        <ele>16.542279</ele>
        <time>2020-06-01T16:14:00.547Z</time>
      </trkpt>
      <trkpt lat="50.43482" lon="3.39372">
        <ele>16.479531</ele>
        <time>2020-06-01T16:14:04.213Z</time>
      </trkpt>
      <trkpt lat="50.43486" lon="3.39433">
        <ele>16.38815</ele>
        <time>2020-06-01T16:14:09.605Z</time>
      </trkpt>
      <trkpt lat="50.43507" lon="3.39544">
        <ele>16.179913</ele>
        <time>2020-06-01T16:14:19.672Z</time>
      </trkpt>
      <trkpt lat="50.43508" lon="3.39556">
        <ele>16.150255</ele>
        <time>2020-06-01T16:14:20.658Z</time>
      </trkpt>
      <trkpt lat="50.43503" lon="3.3957">
        <ele>16.112147</ele>
        <time>2020-06-01T16:14:21.936Z</time>
      </trkpt>
      <trkpt lat="50.43482" lon="3.3961">
        <ele>15.985883</ele>
        <time>2020-06-01T16:14:26.330Z</time>
      </trkpt>
      <trkpt lat="50.43427" lon="3.39684">
        <ele>15.704454</ele>
        <time>2020-06-01T16:14:36.094Z</time>
      </trkpt>
      <trkpt lat="50.4341" lon="3.39703">
        <ele>15.62555</ele>
        <time>2020-06-01T16:14:38.948Z</time>
      </trkpt>
      <trkpt lat="50.43362" lon="3.39736">
        <ele>15.680422</ele>
        <time>2020-06-01T16:14:46.533Z</time>
      </trkpt>
      <trkpt lat="50.43347" lon="3.39754">
        <ele>15.728117</ele>
        <time>2020-06-01T16:14:49.335Z</time>
      </trkpt>
      <trkpt lat="50.43336" lon="3.39777">
        <ele>15.773319</ele>
        <time>2020-06-01T16:14:52.227Z</time>
      </trkpt>
      <trkpt lat="50.43334" lon="3.39795">
        <ele>15.802376</ele>
        <time>2020-06-01T16:14:54.000Z</time>
      </trkpt>
      <trkpt lat="50.43334" lon="3.39811">
        <ele>15.8293</ele>
        <time>2020-06-01T16:14:55.654Z</time>
      </trkpt>
      <trkpt lat="50.43335" lon="3.39825">
        <ele>15.850826</ele>
        <time>2020-06-01T16:14:57.254Z</time>
      </trkpt>
      <trkpt lat="50.43346" lon="3.3985">
        <ele>15.899221</ele>
        <time>2020-06-01T16:15:00.365Z</time>
      </trkpt>
      <trkpt lat="50.43368" lon="3.39878">
        <ele>15.970177</ele>
        <time>2020-06-01T16:15:05.186Z</time>
      </trkpt>
      <trkpt lat="50.43436" lon="3.39946">
        <ele>16.486823</ele>
        <time>2020-06-01T16:15:19.057Z</time>
      </trkpt>
      <trkpt lat="50.43456" lon="3.39976">
        <ele>16.706988</ele>
        <time>2020-06-01T16:15:24.283Z</time>
      </trkpt>
      <trkpt lat="50.43486" lon="3.4006">
        <ele>17.195613</ele>
        <time>2020-06-01T16:15:35.703Z</time>
      </trkpt>
      <trkpt lat="50.43498" lon="3.40094">
        <ele>17.394732</ele>
        <time>2020-06-01T16:15:40.124Z</time>
      </trkpt>
      <trkpt lat="50.43526" lon="3.40171">
        <ele>17.754469</ele>
        <time>2020-06-01T16:15:50.486Z</time>
      </trkpt>
      <trkpt lat="50.43542" lon="3.40212">
        <ele>17.938489</ele>
        <time>2020-06-01T16:15:55.777Z</time>
      </trkpt>
      <trkpt lat="50.43554" lon="3.40242">
        <ele>18.075129</ele>
        <time>2020-06-01T16:15:59.546Z</time>
      </trkpt>
      <trkpt lat="50.43571" lon="3.40265">
        <ele>18.210158</ele>
        <time>2020-06-01T16:16:03.481Z</time>
      </trkpt>
      <trkpt lat="50.43593" lon="3.40276">
        <ele>18.35102</ele>
        <time>2020-06-01T16:16:07.731Z</time>
      </trkpt>
      <trkpt lat="50.43683" lon="3.40282">
        <ele>18.472858</ele>
        <time>2020-06-01T16:16:22.066Z</time>
      </trkpt>
      <trkpt lat="50.43729" lon="3.40299">
        <ele>18.402118</ele>
        <time>2020-06-01T16:16:28.625Z</time>
      </trkpt>
      <trkpt lat="50.43736" lon="3.40309">
        <ele>18.388899</ele>
        <time>2020-06-01T16:16:29.974Z</time>
      </trkpt>
      <trkpt lat="50.43748" lon="3.40309">
        <ele>18.370687</ele>
        <time>2020-06-01T16:16:31.555Z</time>
      </trkpt>
      <trkpt lat="50.4377" lon="3.40317">
        <ele>18.337114</ele>
        <time>2020-06-01T16:16:34.702Z</time>
      </trkpt>
      <trkpt lat="50.43797" lon="3.40314">
        <ele>18.298361</ele>
        <time>2020-06-01T16:16:38.134Z</time>
      </trkpt>
      <trkpt lat="50.43811" lon="3.40306">
        <ele>18.245345</ele>
        <time>2020-06-01T16:16:40.156Z</time>
      </trkpt>
      <trkpt lat="50.43827" lon="3.40302">
        <ele>18.162829</ele>
        <time>2020-06-01T16:16:42.274Z</time>
      </trkpt>
      <trkpt lat="50.43848" lon="3.40299">
        <ele>18.056562</ele>
        <time>2020-06-01T16:16:45.098Z</time>
      </trkpt>
      <trkpt lat="50.43949" lon="3.40286">
        <ele>17.542175</ele>
        <time>2020-06-01T16:16:58.302Z</time>
      </trkpt>
      <trkpt lat="50.4398" lon="3.40292">
        <ele>17.388267</ele>
        <time>2020-06-01T16:17:02.307Z</time>
      </trkpt>
      <trkpt lat="50.44132" lon="3.40486">
        <ele>17.190281</ele>
        <time>2020-06-01T16:17:30.779Z</time>
      </trkpt>
      <trkpt lat="50.44176" lon="3.40519">
        <ele>17.275106</ele>
        <time>2020-06-01T16:17:38.436Z</time>
      </trkpt>
      <trkpt lat="50.4421" lon="3.40529">
        <ele>17.334881</ele>
        <time>2020-06-01T16:17:43.938Z</time>
      </trkpt>
      <trkpt lat="50.44268" lon="3.40511">
        <ele>17.436308</ele>
        <time>2020-06-01T16:17:53.075Z</time>
      </trkpt>
      <trkpt lat="50.44304" lon="3.40483">
        <ele>17.506288</ele>
        <time>2020-06-01T16:17:59.539Z</time>
      </trkpt>
      <trkpt lat="50.44329" lon="3.40449">
        <ele>17.562985</ele>
        <time>2020-06-01T16:18:04.730Z</time>
      </trkpt>
      <trkpt lat="50.44343" lon="3.40415">
        <ele>17.608051</ele>
        <time>2020-06-01T16:18:08.884Z</time>
      </trkpt>
      <trkpt lat="50.44345" lon="3.40411">
        <ele>17.613967</ele>
        <time>2020-06-01T16:18:09.454Z</time>
      </trkpt>
      <trkpt lat="50.44349" lon="3.40406">
        <ele>17.621921</ele>
        <time>2020-06-01T16:18:10.124Z</time>
      </trkpt>
      <trkpt lat="50.44351" lon="3.40411">
        <ele>17.628654</ele>
        <time>2020-06-01T16:18:10.943Z</time>
      </trkpt>
      <trkpt lat="50.44354" lon="3.40415">
        <ele>17.635297</ele>
        <time>2020-06-01T16:18:11.777Z</time>
      </trkpt>
      <trkpt lat="50.44357" lon="3.40416">
        <ele>17.64167</ele>
        <time>2020-06-01T16:18:12.515Z</time>
      </trkpt>
      <trkpt lat="50.44364" lon="3.40414">
        <ele>17.654029</ele>
        <time>2020-06-01T16:18:14.049Z</time>
      </trkpt>
      <trkpt lat="50.44367" lon="3.40411">
        <ele>17.660187</ele>
        <time>2020-06-01T16:18:14.827Z</time>
      </trkpt>
      <trkpt lat="50.44369" lon="3.40406">
        <ele>17.666548</ele>
        <time>2020-06-01T16:18:15.607Z</time>
      </trkpt>
      <trkpt lat="50.4437" lon="3.40401">
        <ele>17.672829</ele>
        <time>2020-06-01T16:18:16.375Z</time>
      </trkpt>
      <trkpt lat="50.4437" lon="3.40395">
        <ele>17.679928</ele>
        <time>2020-06-01T16:18:17.258Z</time>
      </trkpt>
      <trkpt lat="50.44369" lon="3.40389">
        <ele>17.687033</ele>
        <time>2020-06-01T16:18:18.094Z</time>
      </trkpt>
      <trkpt lat="50.44366" lon="3.40384">
        <ele>17.693285</ele>
        <time>2020-06-01T16:18:18.874Z</time>
      </trkpt>
      <trkpt lat="50.44363" lon="3.40382">
        <ele>17.699507</ele>
        <time>2020-06-01T16:18:19.633Z</time>
      </trkpt>
      <trkpt lat="50.4436" lon="3.40376">
        <ele>17.70792</ele>
        <time>2020-06-01T16:18:20.334Z</time>
      </trkpt>
      <trkpt lat="50.44356" lon="3.40369">
        <ele>17.718519</ele>
        <time>2020-06-01T16:18:21.227Z</time>
      </trkpt>
      <trkpt lat="50.44355" lon="3.40366">
        <ele>17.721443</ele>
        <time>2020-06-01T16:18:21.500Z</time>
      </trkpt>
      <trkpt lat="50.44355" lon="3.40364">
        <ele>17.723993</ele>
        <time>2020-06-01T16:18:21.767Z</time>
      </trkpt>
      <trkpt lat="50.4435" lon="3.40349">
        <ele>17.742593</ele>
        <time>2020-06-01T16:18:23.433Z</time>
      </trkpt>
      <trkpt lat="50.44327" lon="3.40191">
        <ele>17.701727</ele>
        <time>2020-06-01T16:18:38.549Z</time>
      </trkpt>
      <trkpt lat="50.44324" lon="3.40172">
        <ele>17.688004</ele>
        <time>2020-06-01T16:18:40.364Z</time>
      </trkpt>
      <trkpt lat="50.44328" lon="3.40171">
        <ele>17.683459</ele>
        <time>2020-06-01T16:18:40.983Z</time>
      </trkpt>
      <trkpt lat="50.44336" lon="3.40169">
        <ele>17.675163</ele>
        <time>2020-06-01T16:18:41.989Z</time>
      </trkpt>
      <trkpt lat="50.44352" lon="3.40158">
        <ele>17.65522</ele>
        <time>2020-06-01T16:18:44.707Z</time>
      </trkpt>
      <trkpt lat="50.44411" lon="3.40092">
        <ele>17.552336</ele>
        <time>2020-06-01T16:18:54.739Z</time>
      </trkpt>
      <trkpt lat="50.44442" lon="3.40044">
        <ele>17.41731</ele>
        <time>2020-06-01T16:19:00.618Z</time>
      </trkpt>
      <trkpt lat="50.44506" lon="3.39996">
        <ele>17.198077</ele>
        <time>2020-06-01T16:19:10.267Z</time>
      </trkpt>
      <trkpt lat="50.44563" lon="3.39968">
        <ele>17.018707</ele>
        <time>2020-06-01T16:19:18.721Z</time>
      </trkpt>
      <trkpt lat="50.44582" lon="3.39958">
        <ele>16.981977</ele>
        <time>2020-06-01T16:19:21.438Z</time>
      </trkpt>
      <trkpt lat="50.44585" lon="3.39956">
        <ele>16.97472</ele>
        <time>2020-06-01T16:19:22.161Z</time>
      </trkpt>
      <trkpt lat="50.44668" lon="3.39898">
        <ele>16.807185</ele>
        <time>2020-06-01T16:19:34.986Z</time>
      </trkpt>
      <trkpt lat="50.44711" lon="3.39885">
        <ele>16.727517</ele>
        <time>2020-06-01T16:19:41.020Z</time>
      </trkpt>
      <trkpt lat="50.44735" lon="3.39886">
        <ele>16.685342</ele>
        <time>2020-06-01T16:19:44.544Z</time>
      </trkpt>
      <trkpt lat="50.4477" lon="3.39909">
        <ele>16.628169</ele>
        <time>2020-06-01T16:19:49.939Z</time>
      </trkpt>
      <trkpt lat="50.44788" lon="3.39945">
        <ele>16.58449</ele>
        <time>2020-06-01T16:19:54.018Z</time>
      </trkpt>
      <trkpt lat="50.44798" lon="3.39987">
        <ele>16.541042</ele>
        <time>2020-06-01T16:19:58.158Z</time>
      </trkpt>
      <trkpt lat="50.44805" lon="3.40058">
        <ele>16.472523</ele>
        <time>2020-06-01T16:20:04.674Z</time>
      </trkpt>
      <trkpt lat="50.44779" lon="3.40171">
        <ele>16.422642</ele>
        <time>2020-06-01T16:20:15.836Z</time>
      </trkpt>
      <trkpt lat="50.44776" lon="3.40217">
        <ele>16.420634</ele>
        <time>2020-06-01T16:20:20.430Z</time>
      </trkpt>
      <trkpt lat="50.44783" lon="3.40239">
        <ele>16.419613</ele>
        <time>2020-06-01T16:20:22.777Z</time>
      </trkpt>
      <trkpt lat="50.44815" lon="3.40277">
        <ele>16.416854</ele>
        <time>2020-06-01T16:20:28.685Z</time>
      </trkpt>
      <trkpt lat="50.4489" lon="3.40344">
        <ele>16.412357</ele>
        <time>2020-06-01T16:20:41.420Z</time>
      </trkpt>
      <trkpt lat="50.44904" lon="3.40352">
        <ele>16.411888</ele>
        <time>2020-06-01T16:20:43.703Z</time>
      </trkpt>
      <trkpt lat="50.44909" lon="3.40355">
        <ele>16.411694</ele>
        <time>2020-06-01T16:20:44.553Z</time>
      </trkpt>
      <trkpt lat="50.44921" lon="3.40362">
        <ele>16.411299</ele>
        <time>2020-06-01T16:20:46.394Z</time>
      </trkpt>
      <trkpt lat="50.44925" lon="3.40366">
        <ele>16.411149</ele>
        <time>2020-06-01T16:20:47.063Z</time>
      </trkpt>
      <trkpt lat="50.44929" lon="3.40364">
        <ele>16.411012</ele>
        <time>2020-06-01T16:20:47.722Z</time>
      </trkpt>
      <trkpt lat="50.44932" lon="3.40358">
        <ele>16.410855</ele>
        <time>2020-06-01T16:20:48.485Z</time>
      </trkpt>
      <trkpt lat="50.44933" lon="3.40352">
        <ele>16.410731</ele>
        <time>2020-06-01T16:20:49.135Z</time>
      </trkpt>
      <trkpt lat="50.44936" lon="3.40343">
        <ele>16.410521</ele>
        <time>2020-06-01T16:20:50.048Z</time>
      </trkpt>
      <trkpt lat="50.44942" lon="3.40318">
        <ele>16.409962</ele>
        <time>2020-06-01T16:20:52.640Z</time>
      </trkpt>
      <trkpt lat="50.44952" lon="3.40274">
        <ele>16.409013</ele>
        <time>2020-06-01T16:20:57.115Z</time>
      </trkpt>
      <trkpt lat="50.44991" lon="3.40144">
        <ele>16.434496</ele>
        <time>2020-06-01T16:21:10.511Z</time>
      </trkpt>
      <trkpt lat="50.45019" lon="3.4007">
        <ele>16.462706</ele>
        <time>2020-06-01T16:21:19.097Z</time>
      </trkpt>
      <trkpt lat="50.45042" lon="3.40041">
        <ele>16.477634</ele>
        <time>2020-06-01T16:21:23.524Z</time>
      </trkpt>
      <trkpt lat="50.45119" lon="3.39987">
        <ele>16.539114</ele>
        <time>2020-06-01T16:21:36.020Z</time>
      </trkpt>
      <trkpt lat="50.45149" lon="3.39949">
        <ele>16.576278</ele>
        <time>2020-06-01T16:21:41.781Z</time>
      </trkpt>
      <trkpt lat="50.45165" lon="3.39897">
        <ele>16.611327</ele>
        <time>2020-06-01T16:21:47.423Z</time>
      </trkpt>
      <trkpt lat="50.45176" lon="3.39757">
        <ele>16.674298</ele>
        <time>2020-06-01T16:22:01.338Z</time>
      </trkpt>
      <trkpt lat="50.45189" lon="3.39716">
        <ele>16.677478</ele>
        <time>2020-06-01T16:22:05.780Z</time>
      </trkpt>
      <trkpt lat="50.45193" lon="3.3971">
        <ele>16.678101</ele>
        <time>2020-06-01T16:22:06.743Z</time>
      </trkpt>
      <trkpt lat="50.45207" lon="3.39701">
        <ele>16.679766</ele>
        <time>2020-06-01T16:22:09.111Z</time>
      </trkpt>
      <trkpt lat="50.45256" lon="3.39668">
        <ele>16.685527</ele>
        <time>2020-06-01T16:22:16.846Z</time>
      </trkpt>
      <trkpt lat="50.45337" lon="3.39553">
        <ele>16.559263</ele>
        <time>2020-06-01T16:22:32.376Z</time>
      </trkpt>
      <trkpt lat="50.45344" lon="3.39539">
        <ele>16.533735</ele>
        <time>2020-06-01T16:22:33.942Z</time>
      </trkpt>
      <trkpt lat="50.45361" lon="3.39509">
        <ele>16.477087</ele>
        <time>2020-06-01T16:22:37.441Z</time>
      </trkpt>
      <trkpt lat="50.4541" lon="3.39414">
        <ele>16.303616</ele>
        <time>2020-06-01T16:22:48.169Z</time>
      </trkpt>
      <trkpt lat="50.45554" lon="3.39277">
        <ele>16.370605</ele>
        <time>2020-06-01T16:23:13.477Z</time>
      </trkpt>
      <trkpt lat="50.45594" lon="3.39222">
        <ele>16.487334</ele>
        <time>2020-06-01T16:23:21.926Z</time>
      </trkpt>
      <trkpt lat="50.45597" lon="3.39214">
        <ele>16.505891</ele>
        <time>2020-06-01T16:23:23.063Z</time>
      </trkpt>
      <trkpt lat="50.45603" lon="3.39204">
        <ele>16.532495</ele>
        <time>2020-06-01T16:23:24.425Z</time>
      </trkpt>
      <trkpt lat="50.457" lon="3.38908">
        <ele>17.028712</ele>
        <time>2020-06-01T16:23:58.743Z</time>
      </trkpt>
      <trkpt lat="50.4573" lon="3.38724">
        <ele>17.053469</ele>
        <time>2020-06-01T16:24:16.415Z</time>
      </trkpt>
      <trkpt lat="50.45768" lon="3.38628">
        <ele>16.760193</ele>
        <time>2020-06-01T16:24:26.180Z</time>
      </trkpt>
      <trkpt lat="50.45772" lon="3.38619">
        <ele>16.729715</ele>
        <time>2020-06-01T16:24:27.167Z</time>
      </trkpt>
      <trkpt lat="50.45795" lon="3.3858">
        <ele>16.591438</ele>
        <time>2020-06-01T16:24:33.465Z</time>
      </trkpt>
      <trkpt lat="50.45837" lon="3.38503">
        <ele>16.335979</ele>
        <time>2020-06-01T16:24:45.339Z</time>
      </trkpt>
      <trkpt lat="50.45848" lon="3.38464">
        <ele>16.236335</ele>
        <time>2020-06-01T16:24:50.267Z</time>
      </trkpt>
      <trkpt lat="50.45852" lon="3.38431">
        <ele>16.156034</ele>
        <time>2020-06-01T16:24:54.267Z</time>
      </trkpt>
      <trkpt lat="50.45827" lon="3.38292">
        <ele>15.815191</ele>
        <time>2020-06-01T16:25:11.762Z</time>
      </trkpt>
      <trkpt lat="50.45809" lon="3.38141">
        <ele>15.781179</ele>
        <time>2020-06-01T16:25:31.476Z</time>
      </trkpt>
      <trkpt lat="50.45812" lon="3.38099">
        <ele>15.792872</ele>
        <time>2020-06-01T16:25:37.016Z</time>
      </trkpt>
      <trkpt lat="50.45865" lon="3.37925">
        <ele>15.95514</ele>
        <time>2020-06-01T16:26:02.689Z</time>
      </trkpt>
      <trkpt lat="50.45874" lon="3.37865">
        <ele>16.057585</ele>
        <time>2020-06-01T16:26:10.935Z</time>
      </trkpt>
      <trkpt lat="50.45873" lon="3.37854">
        <ele>16.07668</ele>
        <time>2020-06-01T16:26:12.498Z</time>
      </trkpt>
      <trkpt lat="50.45871" lon="3.37833">
        <ele>16.112013</ele>
        <time>2020-06-01T16:26:14.587Z</time>
      </trkpt>
      <trkpt lat="50.4583" lon="3.37615">
        <ele>16.577831</ele>
        <time>2020-06-01T16:26:38.553Z</time>
      </trkpt>
      <trkpt lat="50.45801" lon="3.37475">
        <ele>16.933085</ele>
        <time>2020-06-01T16:26:53.966Z</time>
      </trkpt>
      <trkpt lat="50.45801" lon="3.37475">
        <ele>16.933085</ele>
        <time>2020-06-01T16:26:54.009Z</time>
      </trkpt>
      <trkpt lat="50.45801" lon="3.37475">
        <ele>16.933085</ele>
        <time>2020-06-01T16:26:54.012Z</time>
      </trkpt>
      <trkpt lat="50.45842" lon="3.37458">
        <ele>17.014795</ele>
        <time>2020-06-01T16:27:00.869Z</time>
      </trkpt>
      <trkpt lat="50.45988" lon="3.37398">
        <ele>17.184913</ele>
        <time>2020-06-01T16:27:23.558Z</time>
      </trkpt>
      <trkpt lat="50.4601" lon="3.37381">
        <ele>17.19032</ele>
        <time>2020-06-01T16:27:27.159Z</time>
      </trkpt>
      <trkpt lat="50.46072" lon="3.37291">
        <ele>17.208826</ele>
        <time>2020-06-01T16:27:39.604Z</time>
      </trkpt>
      <trkpt lat="50.46093" lon="3.37259">
        <ele>17.215223</ele>
        <time>2020-06-01T16:27:43.945Z</time>
      </trkpt>
      <trkpt lat="50.4609" lon="3.37221">
        <ele>17.220604</ele>
        <time>2020-06-01T16:27:47.655Z</time>
      </trkpt>
      <trkpt lat="50.46101" lon="3.37173">
        <ele>17.248847</ele>
        <time>2020-06-01T16:27:52.559Z</time>
      </trkpt>
      <trkpt lat="50.46162" lon="3.37003">
        <ele>17.43207</ele>
        <time>2020-06-01T16:28:11.559Z</time>
      </trkpt>
      <trkpt lat="50.46181" lon="3.3698">
        <ele>17.468441</ele>
        <time>2020-06-01T16:28:15.374Z</time>
      </trkpt>
      <trkpt lat="50.46236" lon="3.36937">
        <ele>17.631226</ele>
        <time>2020-06-01T16:28:25.088Z</time>
      </trkpt>
      <trkpt lat="50.46317" lon="3.36821">
        <ele>17.964269</ele>
        <time>2020-06-01T16:28:42.878Z</time>
      </trkpt>
      <trkpt lat="50.46328" lon="3.3681">
        <ele>18.004313</ele>
        <time>2020-06-01T16:28:45.122Z</time>
      </trkpt>
      <trkpt lat="50.46347" lon="3.36796">
        <ele>18.048258</ele>
        <time>2020-06-01T16:28:48.462Z</time>
      </trkpt>
      <trkpt lat="50.46452" lon="3.36731">
        <ele>18.167358</ele>
        <time>2020-06-01T16:29:06.203Z</time>
      </trkpt>
      <trkpt lat="50.46467" lon="3.36728">
        <ele>18.18354</ele>
        <time>2020-06-01T16:29:08.668Z</time>
      </trkpt>
      <trkpt lat="50.46482" lon="3.36721">
        <ele>18.200221</ele>
        <time>2020-06-01T16:29:10.844Z</time>
      </trkpt>
      <trkpt lat="50.46504" lon="3.36691">
        <ele>18.213532</ele>
        <time>2020-06-01T16:29:15.019Z</time>
      </trkpt>
      <trkpt lat="50.46543" lon="3.36611">
        <ele>17.950653</ele>
        <time>2020-06-01T16:29:23.789Z</time>
      </trkpt>
      <trkpt lat="50.4655" lon="3.36586">
        <ele>17.878084</ele>
        <time>2020-06-01T16:29:26.022Z</time>
      </trkpt>
      <trkpt lat="50.46553" lon="3.36575">
        <ele>17.848335</ele>
        <time>2020-06-01T16:29:27.024Z</time>
      </trkpt>
      <trkpt lat="50.46636" lon="3.36231">
        <ele>17.034758</ele>
        <time>2020-06-01T16:29:58.334Z</time>
      </trkpt>
      <trkpt lat="50.46641" lon="3.36205">
        <ele>16.98103</ele>
        <time>2020-06-01T16:30:00.733Z</time>
      </trkpt>
      <trkpt lat="50.46643" lon="3.36196">
        <ele>16.962031</ele>
        <time>2020-06-01T16:30:01.991Z</time>
      </trkpt>
      <trkpt lat="50.46672" lon="3.36146">
        <ele>17.092951</ele>
        <time>2020-06-01T16:30:08.832Z</time>
      </trkpt>
      <trkpt lat="50.46856" lon="3.35927">
        <ele>18.101185</ele>
        <time>2020-06-01T16:30:48.411Z</time>
      </trkpt>
      <trkpt lat="50.46894" lon="3.35886">
        <ele>18.273763</ele>
        <time>2020-06-01T16:30:55.936Z</time>
      </trkpt>
      <trkpt lat="50.46912" lon="3.35871">
        <ele>18.349247</ele>
        <time>2020-06-01T16:30:59.031Z</time>
      </trkpt>
      <trkpt lat="50.46936" lon="3.35855">
        <ele>18.444885</ele>
        <time>2020-06-01T16:31:03.016Z</time>
      </trkpt>
      <trkpt lat="50.46998" lon="3.35811">
        <ele>18.352824</ele>
        <time>2020-06-01T16:31:13.124Z</time>
      </trkpt>
      <trkpt lat="50.47032" lon="3.35772">
        <ele>18.286268</ele>
        <time>2020-06-01T16:31:18.902Z</time>
      </trkpt>
      <trkpt lat="50.47114" lon="3.35632">
        <ele>18.117429</ele>
        <time>2020-06-01T16:31:35.527Z</time>
      </trkpt>
      <trkpt lat="50.47189" lon="3.35539">
        <ele>18.014332</ele>
        <time>2020-06-01T16:31:49.376Z</time>
      </trkpt>
      <trkpt lat="50.4722" lon="3.35499">
        <ele>17.996302</ele>
        <time>2020-06-01T16:31:55.515Z</time>
      </trkpt>
      <trkpt lat="50.47243" lon="3.35471">
        <ele>18.146218</ele>
        <time>2020-06-01T16:32:00.134Z</time>
      </trkpt>
      <trkpt lat="50.47273" lon="3.35442">
        <ele>18.326279</ele>
        <time>2020-06-01T16:32:05.819Z</time>
      </trkpt>
      <trkpt lat="50.47292" lon="3.35427">
        <ele>18.435306</ele>
        <time>2020-06-01T16:32:09.354Z</time>
      </trkpt>
      <trkpt lat="50.47326" lon="3.35407">
        <ele>18.623599</ele>
        <time>2020-06-01T16:32:15.758Z</time>
      </trkpt>
      <trkpt lat="50.47352" lon="3.35393">
        <ele>18.762674</ele>
        <time>2020-06-01T16:32:20.627Z</time>
      </trkpt>
      <trkpt lat="50.47409" lon="3.35345">
        <ele>19.151932</ele>
        <time>2020-06-01T16:32:32.492Z</time>
      </trkpt>
      <trkpt lat="50.47423" lon="3.35327">
        <ele>19.276196</ele>
        <time>2020-06-01T16:32:35.915Z</time>
      </trkpt>
      <trkpt lat="50.47442" lon="3.35289">
        <ele>19.483812</ele>
        <time>2020-06-01T16:32:41.259Z</time>
      </trkpt>
      <trkpt lat="50.47444" lon="3.35285">
        <ele>19.504308</ele>
        <time>2020-06-01T16:32:41.957Z</time>
      </trkpt>
      <trkpt lat="50.47454" lon="3.3526">
        <ele>19.629448</ele>
        <time>2020-06-01T16:32:45.036Z</time>
      </trkpt>
      <trkpt lat="50.47468" lon="3.35217">
        <ele>19.835382</ele>
        <time>2020-06-01T16:32:50.445Z</time>
      </trkpt>
      <trkpt lat="50.4748" lon="3.35192">
        <ele>19.967526</ele>
        <time>2020-06-01T16:32:53.741Z</time>
      </trkpt>
      <trkpt lat="50.47498" lon="3.35165">
        <ele>20.117731</ele>
        <time>2020-06-01T16:32:57.934Z</time>
      </trkpt>
      <trkpt lat="50.4752" lon="3.35136">
        <ele>20.210475</ele>
        <time>2020-06-01T16:33:02.890Z</time>
      </trkpt>
      <trkpt lat="50.47521" lon="3.35135">
        <ele>20.213155</ele>
        <time>2020-06-01T16:33:02.972Z</time>
      </trkpt>
      <trkpt lat="50.47545" lon="3.35103">
        <ele>20.31534</ele>
        <time>2020-06-01T16:33:08.402Z</time>
      </trkpt>
      <trkpt lat="50.47678" lon="3.34895">
        <ele>20.89069</ele>
        <time>2020-06-01T16:33:37.690Z</time>
      </trkpt>
      <trkpt lat="50.47745" lon="3.34702">
        <ele>21.354764</ele>
        <time>2020-06-01T16:34:00.378Z</time>
      </trkpt>
      <trkpt lat="50.4778" lon="3.34614">
        <ele>21.684654</ele>
        <time>2020-06-01T16:34:11.584Z</time>
      </trkpt>
      <trkpt lat="50.47812" lon="3.34585">
        <ele>21.865735</ele>
        <time>2020-06-01T16:34:17.747Z</time>
      </trkpt>
      <trkpt lat="50.47892" lon="3.34562">
        <ele>22.363284</ele>
        <time>2020-06-01T16:34:31.721Z</time>
      </trkpt>
      <trkpt lat="50.47917" lon="3.34547">
        <ele>22.567156</ele>
        <time>2020-06-01T16:34:36.612Z</time>
      </trkpt>
      <trkpt lat="50.47955" lon="3.34464">
        <ele>23.053023</ele>
        <time>2020-06-01T16:34:48.310Z</time>
      </trkpt>
      <trkpt lat="50.4797" lon="3.3443">
        <ele>23.251983</ele>
        <time>2020-06-01T16:34:53.114Z</time>
      </trkpt>
      <trkpt lat="50.48003" lon="3.3436">
        <ele>23.701339</ele>
        <time>2020-06-01T16:35:03.085Z</time>
      </trkpt>
      <trkpt lat="50.48067" lon="3.34233">
        <ele>24.583766</ele>
        <time>2020-06-01T16:35:22.091Z</time>
      </trkpt>
      <trkpt lat="50.48126" lon="3.34153">
        <ele>25.142121</ele>
        <time>2020-06-01T16:35:36.393Z</time>
      </trkpt>
      <trkpt lat="50.48139" lon="3.34124">
        <ele>25.259822</ele>
        <time>2020-06-01T16:35:40.337Z</time>
      </trkpt>
      <trkpt lat="50.48165" lon="3.34141">
        <ele>25.403362</ele>
        <time>2020-06-01T16:35:45.224Z</time>
      </trkpt>
      <trkpt lat="50.48187" lon="3.34152">
        <ele>25.521948</ele>
        <time>2020-06-01T16:35:49.094Z</time>
      </trkpt>
      <trkpt lat="50.48218" lon="3.34187">
        <ele>25.720118</ele>
        <time>2020-06-01T16:35:55.504Z</time>
      </trkpt>
      <trkpt lat="50.4829" lon="3.34308">
        <ele>25.787539</ele>
        <time>2020-06-01T16:36:11.664Z</time>
      </trkpt>
      <trkpt lat="50.48294" lon="3.34327">
        <ele>25.768642</ele>
        <time>2020-06-01T16:36:13.400Z</time>
      </trkpt>
      <trkpt lat="50.48286" lon="3.34365">
        <ele>25.730797</ele>
        <time>2020-06-01T16:36:16.840Z</time>
      </trkpt>
      <trkpt lat="50.48251" lon="3.34428">
        <ele>25.649772</ele>
        <time>2020-06-01T16:36:24.154Z</time>
      </trkpt>
      <trkpt lat="50.48253" lon="3.34449">
        <ele>25.629946</ele>
        <time>2020-06-01T16:36:25.935Z</time>
      </trkpt>
      <trkpt lat="50.4829" lon="3.34541">
        <ele>25.360502</ele>
        <time>2020-06-01T16:36:35.336Z</time>
      </trkpt>
      <trkpt lat="50.48311" lon="3.34618">
        <ele>25.149142</ele>
        <time>2020-06-01T16:36:42.342Z</time>
      </trkpt>
      <trkpt lat="50.48323" lon="3.34751">
        <ele>24.844736</ele>
        <time>2020-06-01T16:36:54.224Z</time>
      </trkpt>
      <trkpt lat="50.48323" lon="3.34768">
        <ele>24.819919</ele>
        <time>2020-06-01T16:36:55.611Z</time>
      </trkpt>
      <trkpt lat="50.4832" lon="3.34811">
        <ele>24.754945</ele>
        <time>2020-06-01T16:36:59.567Z</time>
      </trkpt>
      <trkpt lat="50.48316" lon="3.34858">
        <ele>24.685423</ele>
        <time>2020-06-01T16:37:03.709Z</time>
      </trkpt>
      <trkpt lat="50.48302" lon="3.34928">
        <ele>24.575392</ele>
        <time>2020-06-01T16:37:10.217Z</time>
      </trkpt>
      <trkpt lat="50.48287" lon="3.34969">
        <ele>24.503866</ele>
        <time>2020-06-01T16:37:14.560Z</time>
      </trkpt>
      <trkpt lat="50.48284" lon="3.34982">
        <ele>24.484103</ele>
        <time>2020-06-01T16:37:15.694Z</time>
      </trkpt>
      <trkpt lat="50.48286" lon="3.35002">
        <ele>24.50499</ele>
        <time>2020-06-01T16:37:17.530Z</time>
      </trkpt>
      <trkpt lat="50.48293" lon="3.35025">
        <ele>24.539435</ele>
        <time>2020-06-01T16:37:20.034Z</time>
      </trkpt>
      <trkpt lat="50.48309" lon="3.35068">
        <ele>24.606881</ele>
        <time>2020-06-01T16:37:24.906Z</time>
      </trkpt>
      <trkpt lat="50.48339" lon="3.35152">
        <ele>24.737763</ele>
        <time>2020-06-01T16:37:34.616Z</time>
      </trkpt>
      <trkpt lat="50.48371" lon="3.35241">
        <ele>24.885162</ele>
        <time>2020-06-01T16:37:45.305Z</time>
      </trkpt>
      <trkpt lat="50.48391" lon="3.35282">
        <ele>25.004824</ele>
        <time>2020-06-01T16:37:50.873Z</time>
      </trkpt>
      <trkpt lat="50.48405" lon="3.35308">
        <ele>25.081373</ele>
        <time>2020-06-01T16:37:54.486Z</time>
      </trkpt>
      <trkpt lat="50.48429" lon="3.35349">
        <ele>25.207888</ele>
        <time>2020-06-01T16:38:00.437Z</time>
      </trkpt>
      <trkpt lat="50.48476" lon="3.35429">
        <ele>25.459129</ele>
        <time>2020-06-01T16:38:11.870Z</time>
      </trkpt>
      <trkpt lat="50.48485" lon="3.35443">
        <ele>25.505506</ele>
        <time>2020-06-01T16:38:13.882Z</time>
      </trkpt>
      <trkpt lat="50.485" lon="3.35452">
        <ele>25.481243</ele>
        <time>2020-06-01T16:38:16.168Z</time>
      </trkpt>
      <trkpt lat="50.48577" lon="3.35417">
        <ele>25.300774</ele>
        <time>2020-06-01T16:38:27.697Z</time>
      </trkpt>
      <trkpt lat="50.48591" lon="3.35416">
        <ele>25.269758</ele>
        <time>2020-06-01T16:38:29.626Z</time>
      </trkpt>
      <trkpt lat="50.48588" lon="3.35427">
        <ele>25.253349</ele>
        <time>2020-06-01T16:38:30.550Z</time>
      </trkpt>
      <trkpt lat="50.48577" lon="3.35632">
        <ele>24.813784</ele>
        <time>2020-06-01T16:38:48.111Z</time>
      </trkpt>
      <trkpt lat="50.48476" lon="3.35877">
        <ele>23.88327</ele>
        <time>2020-06-01T16:39:13.005Z</time>
      </trkpt>
      <trkpt lat="50.4844" lon="3.36037">
        <ele>23.246068</ele>
        <time>2020-06-01T16:39:26.979Z</time>
      </trkpt>
      <trkpt lat="50.48415" lon="3.36123">
        <ele>22.698553</ele>
        <time>2020-06-01T16:39:34.626Z</time>
      </trkpt>
      <trkpt lat="50.4841" lon="3.3614">
        <ele>22.594631</ele>
        <time>2020-06-01T16:39:35.949Z</time>
      </trkpt>
      <trkpt lat="50.48385" lon="3.36214">
        <ele>22.107402</ele>
        <time>2020-06-01T16:39:42.728Z</time>
      </trkpt>
      <trkpt lat="50.48379" lon="3.36227">
        <ele>22.020332</ele>
        <time>2020-06-01T16:39:43.853Z</time>
      </trkpt>
      <trkpt lat="50.48373" lon="3.36241">
        <ele>21.916495</ele>
        <time>2020-06-01T16:39:45.772Z</time>
      </trkpt>
      <trkpt lat="50.48272" lon="3.36423">
        <ele>20.823406</ele>
        <time>2020-06-01T16:40:12.889Z</time>
      </trkpt>
      <trkpt lat="50.48173" lon="3.36555">
        <ele>20.516312</ele>
        <time>2020-06-01T16:40:38.463Z</time>
      </trkpt>
      <trkpt lat="50.48161" lon="3.36588">
        <ele>20.543521</ele>
        <time>2020-06-01T16:40:43.499Z</time>
      </trkpt>
      <trkpt lat="50.48151" lon="3.36663">
        <ele>20.598616</ele>
        <time>2020-06-01T16:40:53.817Z</time>
      </trkpt>
      <trkpt lat="50.48143" lon="3.36713">
        <ele>20.635949</ele>
        <time>2020-06-01T16:41:00.904Z</time>
      </trkpt>
      <trkpt lat="50.48132" lon="3.36793">
        <ele>20.768284</ele>
        <time>2020-06-01T16:41:12.354Z</time>
      </trkpt>
      <trkpt lat="50.48117" lon="3.3686">
        <ele>20.885015</ele>
        <time>2020-06-01T16:41:22.079Z</time>
      </trkpt>
      <trkpt lat="50.48069" lon="3.3701">
        <ele>21.063816</ele>
        <time>2020-06-01T16:41:44.503Z</time>
      </trkpt>
      <trkpt lat="50.4804" lon="3.37082">
        <ele>20.942522</ele>
        <time>2020-06-01T16:41:55.200Z</time>
      </trkpt>
      <trkpt lat="50.47943" lon="3.37285">
        <ele>20.466346</ele>
        <time>2020-06-01T16:42:25.838Z</time>
      </trkpt>
      <trkpt lat="50.47896" lon="3.37358">
        <ele>20.184516</ele>
        <time>2020-06-01T16:42:38.130Z</time>
      </trkpt>
      <trkpt lat="50.47871" lon="3.37382">
        <ele>20.060631</ele>
        <time>2020-06-01T16:42:43.543Z</time>
      </trkpt>
      <trkpt lat="50.4784" lon="3.37402">
        <ele>19.921399</ele>
        <time>2020-06-01T16:42:49.882Z</time>
      </trkpt>
      <trkpt lat="50.47705" lon="3.37474">
        <ele>19.450725</ele>
        <time>2020-06-01T16:43:16.912Z</time>
      </trkpt>
      <trkpt lat="50.47664" lon="3.37496">
        <ele>19.325363</ele>
        <time>2020-06-01T16:43:25.442Z</time>
      </trkpt>
      <trkpt lat="50.47627" lon="3.3752">
        <ele>19.258487</ele>
        <time>2020-06-01T16:43:33.269Z</time>
      </trkpt>
      <trkpt lat="50.47622" lon="3.37529">
        <ele>19.245326</ele>
        <time>2020-06-01T16:43:34.797Z</time>
      </trkpt>
      <trkpt lat="50.47619" lon="3.37534">
        <ele>19.237531</ele>
        <time>2020-06-01T16:43:35.723Z</time>
      </trkpt>
      <trkpt lat="50.47611" lon="3.37549">
        <ele>19.217865</ele>
        <time>2020-06-01T16:43:38.022Z</time>
      </trkpt>
      <trkpt lat="50.47606" lon="3.37568">
        <ele>19.195404</ele>
        <time>2020-06-01T16:43:40.675Z</time>
      </trkpt>
      <trkpt lat="50.47586" lon="3.37645">
        <ele>19.106803</ele>
        <time>2020-06-01T16:43:51.142Z</time>
      </trkpt>
      <trkpt lat="50.47437" lon="3.38201">
        <ele>18.612164</ele>
        <time>2020-06-01T16:45:06.696Z</time>
      </trkpt>
      <trkpt lat="50.4736" lon="3.38488">
        <ele>19.003689</ele>
        <time>2020-06-01T16:45:48.761Z</time>
      </trkpt>
      <trkpt lat="50.47358" lon="3.38493">
        <ele>19.012894</ele>
        <time>2020-06-01T16:45:49.548Z</time>
      </trkpt>
      <trkpt lat="50.47357" lon="3.38496">
        <ele>19.016856</ele>
        <time>2020-06-01T16:45:49.886Z</time>
      </trkpt>
      <trkpt lat="50.47295" lon="3.38732">
        <ele>19.423618</ele>
        <time>2020-06-01T16:46:24.719Z</time>
      </trkpt>
      <trkpt lat="50.47288" lon="3.38767">
        <ele>19.441356</ele>
        <time>2020-06-01T16:46:29.645Z</time>
      </trkpt>
      <trkpt lat="50.47282" lon="3.38802">
        <ele>19.44164</ele>
        <time>2020-06-01T16:46:34.440Z</time>
      </trkpt>
      <trkpt lat="50.47272" lon="3.38828">
        <ele>19.441879</ele>
        <time>2020-06-01T16:46:38.324Z</time>
      </trkpt>
      <trkpt lat="50.47216" lon="3.3892">
        <ele>19.44288</ele>
        <time>2020-06-01T16:46:54.679Z</time>
      </trkpt>
      <trkpt lat="50.47176" lon="3.39033">
        <ele>19.442695</ele>
        <time>2020-06-01T16:47:10.934Z</time>
      </trkpt>
      <trkpt lat="50.47152" lon="3.39156">
        <ele>19.441416</ele>
        <time>2020-06-01T16:47:27.363Z</time>
      </trkpt>
      <trkpt lat="50.47115" lon="3.39281">
        <ele>19.492133</ele>
        <time>2020-06-01T16:47:45.917Z</time>
      </trkpt>
      <trkpt lat="50.47091" lon="3.39397">
        <ele>19.615617</ele>
        <time>2020-06-01T16:48:02.410Z</time>
      </trkpt>
      <trkpt lat="50.47083" lon="3.39461">
        <ele>19.681703</ele>
        <time>2020-06-01T16:48:11.038Z</time>
      </trkpt>
      <trkpt lat="50.47082" lon="3.39468">
        <ele>19.689088</ele>
        <time>2020-06-01T16:48:11.986Z</time>
      </trkpt>
      <trkpt lat="50.47074" lon="3.39512">
        <ele>19.709696</ele>
        <time>2020-06-01T16:48:17.900Z</time>
      </trkpt>
      <trkpt lat="50.47176" lon="3.39626">
        <ele>19.304269</ele>
        <time>2020-06-01T16:48:35.489Z</time>
      </trkpt>
      <trkpt lat="50.47183" lon="3.39634">
        <ele>19.277329</ele>
        <time>2020-06-01T16:48:36.602Z</time>
      </trkpt>
      <trkpt lat="50.47325" lon="3.39806">
        <ele>18.281048</ele>
        <time>2020-06-01T16:48:59.926Z</time>
      </trkpt>
      <trkpt lat="50.47365" lon="3.39855">
        <ele>17.988962</ele>
        <time>2020-06-01T16:49:06.321Z</time>
      </trkpt>
      <trkpt lat="50.47386" lon="3.39879">
        <ele>17.886278</ele>
        <time>2020-06-01T16:49:09.675Z</time>
      </trkpt>
      <trkpt lat="50.4741" lon="3.39903">
        <ele>17.773773</ele>
        <time>2020-06-01T16:49:13.505Z</time>
      </trkpt>
      <trkpt lat="50.4741" lon="3.39903">
        <ele>17.773773</ele>
        <time>2020-06-01T16:49:13.509Z</time>
      </trkpt>
      <trkpt lat="50.47446" lon="3.39936">
        <ele>17.605619</ele>
        <time>2020-06-01T16:49:19.221Z</time>
      </trkpt>
      <trkpt lat="50.47487" lon="3.39974">
        <ele>17.41786</ele>
        <time>2020-06-01T16:49:25.702Z</time>
      </trkpt>
      <trkpt lat="50.47497" lon="3.39983">
        <ele>17.370534</ele>
        <time>2020-06-01T16:49:27.445Z</time>
      </trkpt>
      <trkpt lat="50.47533" lon="3.40017">
        <ele>17.326452</ele>
        <time>2020-06-01T16:49:33.238Z</time>
      </trkpt>
      <trkpt lat="50.47603" lon="3.40105">
        <ele>17.377405</ele>
        <time>2020-06-01T16:49:46.909Z</time>
      </trkpt>
      <trkpt lat="50.47651" lon="3.40175">
        <ele>17.415873</ele>
        <time>2020-06-01T16:49:57.335Z</time>
      </trkpt>
      <trkpt lat="50.47655" lon="3.4018">
        <ele>17.421612</ele>
        <time>2020-06-01T16:49:58.159Z</time>
      </trkpt>
      <trkpt lat="50.47697" lon="3.4024">
        <ele>17.486462</ele>
        <time>2020-06-01T16:50:06.864Z</time>
      </trkpt>
      <trkpt lat="50.47702" lon="3.40246">
        <ele>17.49278</ele>
        <time>2020-06-01T16:50:07.817Z</time>
      </trkpt>
      <trkpt lat="50.47707" lon="3.40255">
        <ele>17.501805</ele>
        <time>2020-06-01T16:50:08.975Z</time>
      </trkpt>
      <trkpt lat="50.47729" lon="3.40294">
        <ele>17.540072</ele>
        <time>2020-06-01T16:50:14.095Z</time>
      </trkpt>
      <trkpt lat="50.47856" lon="3.40762">
        <ele>17.756223</ele>
        <time>2020-06-01T16:51:02.763Z</time>
      </trkpt>
      <trkpt lat="50.47867" lon="3.408">
        <ele>17.783707</ele>
        <time>2020-06-01T16:51:06.898Z</time>
      </trkpt>
      <trkpt lat="50.47871" lon="3.40816">
        <ele>17.795063</ele>
        <time>2020-06-01T16:51:08.563Z</time>
      </trkpt>
      <trkpt lat="50.47888" lon="3.40869">
        <ele>17.833733</ele>
        <time>2020-06-01T16:51:14.318Z</time>
      </trkpt>
      <trkpt lat="50.47904" lon="3.40903">
        <ele>17.862099</ele>
        <time>2020-06-01T16:51:18.537Z</time>
      </trkpt>
      <trkpt lat="50.47935" lon="3.40945">
        <ele>17.958445</ele>
        <time>2020-06-01T16:51:24.696Z</time>
      </trkpt>
      <trkpt lat="50.47954" lon="3.40965">
        <ele>18.014441</ele>
        <time>2020-06-01T16:51:28.223Z</time>
      </trkpt>
      <trkpt lat="50.48073" lon="3.41064">
        <ele>18.411139</ele>
        <time>2020-06-01T16:51:49.590Z</time>
      </trkpt>
      <trkpt lat="50.48168" lon="3.41138">
        <ele>19.102032</ele>
        <time>2020-06-01T16:52:08.228Z</time>
      </trkpt>
      <trkpt lat="50.48216" lon="3.41154">
        <ele>19.418016</ele>
        <time>2020-06-01T16:52:17.250Z</time>
      </trkpt>
      <trkpt lat="50.48315" lon="3.41233">
        <ele>20.100313</ele>
        <time>2020-06-01T16:52:37.173Z</time>
      </trkpt>
      <trkpt lat="50.48367" lon="3.4127">
        <ele>20.457514</ele>
        <time>2020-06-01T16:52:46.910Z</time>
      </trkpt>
      <trkpt lat="50.48361" lon="3.41323">
        <ele>20.589384</ele>
        <time>2020-06-01T16:52:52.349Z</time>
      </trkpt>
      <trkpt lat="50.48335" lon="3.41557">
        <ele>20.690427</ele>
        <time>2020-06-01T16:53:14.963Z</time>
      </trkpt>
      <trkpt lat="50.48304" lon="3.41779">
        <ele>20.668613</ele>
        <time>2020-06-01T16:53:36.399Z</time>
      </trkpt>
      <trkpt lat="50.48277" lon="3.41973">
        <ele>20.521863</ele>
        <time>2020-06-01T16:53:54.901Z</time>
      </trkpt>
      <trkpt lat="50.48265" lon="3.42058">
        <ele>20.424579</ele>
        <time>2020-06-01T16:54:02.657Z</time>
      </trkpt>
      <trkpt lat="50.48267" lon="3.42088">
        <ele>20.391473</ele>
        <time>2020-06-01T16:54:05.282Z</time>
      </trkpt>
      <trkpt lat="50.4827" lon="3.42108">
        <ele>20.367908</ele>
        <time>2020-06-01T16:54:07.139Z</time>
      </trkpt>
      <trkpt lat="50.48281" lon="3.42171">
        <ele>20.216208</ele>
        <time>2020-06-01T16:54:12.840Z</time>
      </trkpt>
      <trkpt lat="50.48282" lon="3.42212">
        <ele>20.088919</ele>
        <time>2020-06-01T16:54:16.487Z</time>
      </trkpt>
      <trkpt lat="50.48275" lon="3.42268">
        <ele>19.917225</ele>
        <time>2020-06-01T16:54:21.365Z</time>
      </trkpt>
      <trkpt lat="50.48243" lon="3.4251">
        <ele>19.156733</ele>
        <time>2020-06-01T16:54:41.915Z</time>
      </trkpt>
      <trkpt lat="50.48265" lon="3.42517">
        <ele>19.047512</ele>
        <time>2020-06-01T16:54:44.813Z</time>
      </trkpt>
      <trkpt lat="50.48298" lon="3.42533">
        <ele>18.875748</ele>
        <time>2020-06-01T16:54:49.448Z</time>
      </trkpt>
      <trkpt lat="50.48331" lon="3.42556">
        <ele>18.697922</ele>
        <time>2020-06-01T16:54:54.340Z</time>
      </trkpt>
      <trkpt lat="50.48364" lon="3.42603">
        <ele>18.588098</ele>
        <time>2020-06-01T16:55:00.527Z</time>
      </trkpt>
      <trkpt lat="50.48379" lon="3.42655">
        <ele>18.570554</ele>
        <time>2020-06-01T16:55:05.631Z</time>
      </trkpt>
      <trkpt lat="50.48391" lon="3.42733">
        <ele>18.545872</ele>
        <time>2020-06-01T16:55:13.260Z</time>
      </trkpt>
      <trkpt lat="50.48397" lon="3.4277">
        <ele>18.534006</ele>
        <time>2020-06-01T16:55:17.159Z</time>
      </trkpt>
      <trkpt lat="50.48404" lon="3.42822">
        <ele>18.517792</ele>
        <time>2020-06-01T16:55:22.244Z</time>
      </trkpt>
      <trkpt lat="50.48423" lon="3.42957">
        <ele>18.563079</ele>
        <time>2020-06-01T16:55:35.494Z</time>
      </trkpt>
      <trkpt lat="50.48426" lon="3.42971">
        <ele>18.569185</ele>
        <time>2020-06-01T16:55:36.970Z</time>
      </trkpt>
      <trkpt lat="50.48432" lon="3.43001">
        <ele>18.582104</ele>
        <time>2020-06-01T16:55:39.907Z</time>
      </trkpt>
      <trkpt lat="50.48438" lon="3.43022">
        <ele>18.591841</ele>
        <time>2020-06-01T16:55:42.056Z</time>
      </trkpt>
      <trkpt lat="50.48468" lon="3.43113">
        <ele>18.65188</ele>
        <time>2020-06-01T16:55:51.763Z</time>
      </trkpt>
      <trkpt lat="50.48503" lon="3.4319">
        <ele>18.848853</ele>
        <time>2020-06-01T16:56:01.180Z</time>
      </trkpt>
      <trkpt lat="50.48515" lon="3.43211">
        <ele>18.907219</ele>
        <time>2020-06-01T16:56:03.804Z</time>
      </trkpt>
      <trkpt lat="50.48516" lon="3.43213">
        <ele>18.914794</ele>
        <time>2020-06-01T16:56:04.372Z</time>
      </trkpt>
      <trkpt lat="50.48566" lon="3.43274">
        <ele>19.120582</ele>
        <time>2020-06-01T16:56:14.972Z</time>
      </trkpt>
      <trkpt lat="50.48614" lon="3.43307">
        <ele>19.335335</ele>
        <time>2020-06-01T16:56:23.961Z</time>
      </trkpt>
      <trkpt lat="50.48697" lon="3.4335">
        <ele>19.787723</ele>
        <time>2020-06-01T16:56:38.832Z</time>
      </trkpt>
      <trkpt lat="50.48714" lon="3.43358">
        <ele>19.880893</ele>
        <time>2020-06-01T16:56:41.835Z</time>
      </trkpt>
      <trkpt lat="50.48812" lon="3.43386">
        <ele>20.375124</ele>
        <time>2020-06-01T16:56:58.410Z</time>
      </trkpt>
      <trkpt lat="50.48835" lon="3.43392">
        <ele>20.487421</ele>
        <time>2020-06-01T16:57:02.218Z</time>
      </trkpt>
      <trkpt lat="50.48831" lon="3.43417">
        <ele>20.567175</ele>
        <time>2020-06-01T16:57:04.926Z</time>
      </trkpt>
      <trkpt lat="50.48777" lon="3.43508">
        <ele>20.937192</ele>
        <time>2020-06-01T16:57:18.107Z</time>
      </trkpt>
      <trkpt lat="50.48772" lon="3.4353">
        <ele>21.005369</ele>
        <time>2020-06-01T16:57:20.629Z</time>
      </trkpt>
      <trkpt lat="50.48774" lon="3.4355">
        <ele>21.066679</ele>
        <time>2020-06-01T16:57:23.041Z</time>
      </trkpt>
      <trkpt lat="50.48786" lon="3.43584">
        <ele>21.18255</ele>
        <time>2020-06-01T16:57:27.267Z</time>
      </trkpt>
      <trkpt lat="50.48793" lon="3.43602">
        <ele>21.245667</ele>
        <time>2020-06-01T16:57:29.700Z</time>
      </trkpt>
      <trkpt lat="50.488" lon="3.4362">
        <ele>21.308287</ele>
        <time>2020-06-01T16:57:31.889Z</time>
      </trkpt>
      <trkpt lat="50.48851" lon="3.4374">
        <ele>21.737291</ele>
        <time>2020-06-01T16:57:47.313Z</time>
      </trkpt>
      <trkpt lat="50.48863" lon="3.43769">
        <ele>21.840142</ele>
        <time>2020-06-01T16:57:50.760Z</time>
      </trkpt>
      <trkpt lat="50.48882" lon="3.43799">
        <ele>21.749197</ele>
        <time>2020-06-01T16:57:55.085Z</time>
      </trkpt>
      <trkpt lat="50.48907" lon="3.43837">
        <ele>21.630968</ele>
        <time>2020-06-01T16:58:00.427Z</time>
      </trkpt>
      <trkpt lat="50.48918" lon="3.43854">
        <ele>21.576272</ele>
        <time>2020-06-01T16:58:02.754Z</time>
      </trkpt>
      <trkpt lat="50.48944" lon="3.43891">
        <ele>21.459767</ele>
        <time>2020-06-01T16:58:07.372Z</time>
      </trkpt>
      <trkpt lat="50.48953" lon="3.43902">
        <ele>21.419224</ele>
        <time>2020-06-01T16:58:08.942Z</time>
      </trkpt>
      <trkpt lat="50.48981" lon="3.43937">
        <ele>21.297192</ele>
        <time>2020-06-01T16:58:13.439Z</time>
      </trkpt>
      <trkpt lat="50.48998" lon="3.43966">
        <ele>21.179822</ele>
        <time>2020-06-01T16:58:16.503Z</time>
      </trkpt>
      <trkpt lat="50.4902" lon="3.44022">
        <ele>20.759943</ele>
        <time>2020-06-01T16:58:21.613Z</time>
      </trkpt>
      <trkpt lat="50.49043" lon="3.44079">
        <ele>20.331459</ele>
        <time>2020-06-01T16:58:26.789Z</time>
      </trkpt>
      <trkpt lat="50.49109" lon="3.44183">
        <ele>19.412198</ele>
        <time>2020-06-01T16:58:38.094Z</time>
      </trkpt>
      <trkpt lat="50.49138" lon="3.44236">
        <ele>19.20039</ele>
        <time>2020-06-01T16:58:43.756Z</time>
      </trkpt>
      <trkpt lat="50.49167" lon="3.44324">
        <ele>18.903938</ele>
        <time>2020-06-01T16:58:52.209Z</time>
      </trkpt>
      <trkpt lat="50.49219" lon="3.44434">
        <ele>18.54827</ele>
        <time>2020-06-01T16:59:04.642Z</time>
      </trkpt>
      <trkpt lat="50.49227" lon="3.44464">
        <ele>18.514065</ele>
        <time>2020-06-01T16:59:07.724Z</time>
      </trkpt>
      <trkpt lat="50.49237" lon="3.44565">
        <ele>18.409527</ele>
        <time>2020-06-01T16:59:17.147Z</time>
      </trkpt>
      <trkpt lat="50.49254" lon="3.44618">
        <ele>18.348362</ele>
        <time>2020-06-01T16:59:22.580Z</time>
      </trkpt>
      <trkpt lat="50.49286" lon="3.44688">
        <ele>18.2529</ele>
        <time>2020-06-01T16:59:30.162Z</time>
      </trkpt>
      <trkpt lat="50.49301" lon="3.44709">
        <ele>18.211289</ele>
        <time>2020-06-01T16:59:32.944Z</time>
      </trkpt>
      <trkpt lat="50.49336" lon="3.44729">
        <ele>18.133853</ele>
        <time>2020-06-01T16:59:37.975Z</time>
      </trkpt>
      <trkpt lat="50.4934" lon="3.44731">
        <ele>18.125651</ele>
        <time>2020-06-01T16:59:38.471Z</time>
      </trkpt>
      <trkpt lat="50.49353" lon="3.4475">
        <ele>18.089365</ele>
        <time>2020-06-01T16:59:40.833Z</time>
      </trkpt>
      <trkpt lat="50.49359" lon="3.44758">
        <ele>18.072138</ele>
        <time>2020-06-01T16:59:42.018Z</time>
      </trkpt>
      <trkpt lat="50.49366" lon="3.44748">
        <ele>18.054049</ele>
        <time>2020-06-01T16:59:43.223Z</time>
      </trkpt>
      <trkpt lat="50.49368" lon="3.44744">
        <ele>18.047261</ele>
        <time>2020-06-01T16:59:43.685Z</time>
      </trkpt>
      <trkpt lat="50.4942" lon="3.44663">
        <ele>17.93519</ele>
        <time>2020-06-01T16:59:54.724Z</time>
      </trkpt>
      <trkpt lat="50.49426" lon="3.44654">
        <ele>17.949729</ele>
        <time>2020-06-01T16:59:55.833Z</time>
      </trkpt>
      <trkpt lat="50.49477" lon="3.44573">
        <ele>18.076622</ele>
        <time>2020-06-01T17:00:07.570Z</time>
      </trkpt>
      <trkpt lat="50.49491" lon="3.44561">
        <ele>18.104504</ele>
        <time>2020-06-01T17:00:10.474Z</time>
      </trkpt>
      <trkpt lat="50.49544" lon="3.44521">
        <ele>18.207121</ele>
        <time>2020-06-01T17:00:19.559Z</time>
      </trkpt>
      <trkpt lat="50.49562" lon="3.44503">
        <ele>18.188656</ele>
        <time>2020-06-01T17:00:22.871Z</time>
      </trkpt>
      <trkpt lat="50.4959" lon="3.44475">
        <ele>17.998049</ele>
        <time>2020-06-01T17:00:27.539Z</time>
      </trkpt>
      <trkpt lat="50.49648" lon="3.44404">
        <ele>17.567876</ele>
        <time>2020-06-01T17:00:37.270Z</time>
      </trkpt>
      <trkpt lat="50.49663" lon="3.44393">
        <ele>17.472797</ele>
        <time>2020-06-01T17:00:39.302Z</time>
      </trkpt>
      <trkpt lat="50.49669" lon="3.44396">
        <ele>17.437944</ele>
        <time>2020-06-01T17:00:40.067Z</time>
      </trkpt>
      <trkpt lat="50.49672" lon="3.44401">
        <ele>17.41169</ele>
        <time>2020-06-01T17:00:40.636Z</time>
      </trkpt>
      <trkpt lat="50.49674" lon="3.44405">
        <ele>17.393062</ele>
        <time>2020-06-01T17:00:40.966Z</time>
      </trkpt>
      <trkpt lat="50.49687" lon="3.44433">
        <ele>17.264823</ele>
        <time>2020-06-01T17:00:43.725Z</time>
      </trkpt>
      <trkpt lat="50.49735" lon="3.44569">
        <ele>16.436284</ele>
        <time>2020-06-01T17:00:55.515Z</time>
      </trkpt>
      <trkpt lat="50.49754" lon="3.44626">
        <ele>16.076749</ele>
        <time>2020-06-01T17:01:00.575Z</time>
      </trkpt>
      <trkpt lat="50.49776" lon="3.4469">
        <ele>15.671367</ele>
        <time>2020-06-01T17:01:06.738Z</time>
      </trkpt>
      <trkpt lat="50.49798" lon="3.44759">
        <ele>15.711662</ele>
        <time>2020-06-01T17:01:13.512Z</time>
      </trkpt>
      <trkpt lat="50.49799" lon="3.44762">
        <ele>15.716709</ele>
        <time>2020-06-01T17:01:13.901Z</time>
      </trkpt>
      <trkpt lat="50.49844" lon="3.44889">
        <ele>15.944479</ele>
        <time>2020-06-01T17:01:28.351Z</time>
      </trkpt>
      <trkpt lat="50.49851" lon="3.44909">
        <ele>15.981697</ele>
        <time>2020-06-01T17:01:31.095Z</time>
      </trkpt>
      <trkpt lat="50.49853" lon="3.44914">
        <ele>15.990743</ele>
        <time>2020-06-01T17:01:31.721Z</time>
      </trkpt>
      <trkpt lat="50.49864" lon="3.44939">
        <ele>16.038494</ele>
        <time>2020-06-01T17:01:35.257Z</time>
      </trkpt>
      <trkpt lat="50.49867" lon="3.44946">
        <ele>16.05163</ele>
        <time>2020-06-01T17:01:36.283Z</time>
      </trkpt>
      <trkpt lat="50.49874" lon="3.44964">
        <ele>16.151263</ele>
        <time>2020-06-01T17:01:38.962Z</time>
      </trkpt>
      <trkpt lat="50.49935" lon="3.45106">
        <ele>16.96097</ele>
        <time>2020-06-01T17:01:59.695Z</time>
      </trkpt>
      <trkpt lat="50.49943" lon="3.45125">
        <ele>17.07219</ele>
        <time>2020-06-01T17:02:02.238Z</time>
      </trkpt>
      <trkpt lat="50.49958" lon="3.45159">
        <ele>17.266291</ele>
        <time>2020-06-01T17:02:06.359Z</time>
      </trkpt>
      <trkpt lat="50.49974" lon="3.45177">
        <ele>17.391716</ele>
        <time>2020-06-01T17:02:09.509Z</time>
      </trkpt>
      <trkpt lat="50.49999" lon="3.45188">
        <ele>17.390009</ele>
        <time>2020-06-01T17:02:13.145Z</time>
      </trkpt>
      <trkpt lat="50.50005" lon="3.45189">
        <ele>17.389575</ele>
        <time>2020-06-01T17:02:14.180Z</time>
      </trkpt>
      <trkpt lat="50.50044" lon="3.45199">
        <ele>17.386878</ele>
        <time>2020-06-01T17:02:20.338Z</time>
      </trkpt>
      <trkpt lat="50.50051" lon="3.45202">
        <ele>17.3864</ele>
        <time>2020-06-01T17:02:21.394Z</time>
      </trkpt>
      <trkpt lat="50.50052" lon="3.45203">
        <ele>17.386286</ele>
        <time>2020-06-01T17:02:21.649Z</time>
      </trkpt>
      <trkpt lat="50.50084" lon="3.45223">
        <ele>17.383931</ele>
        <time>2020-06-01T17:02:26.926Z</time>
      </trkpt>
      <trkpt lat="50.50092" lon="3.45227">
        <ele>17.383354</ele>
        <time>2020-06-01T17:02:28.139Z</time>
      </trkpt>
      <trkpt lat="50.50129" lon="3.45252">
        <ele>17.380613</ele>
        <time>2020-06-01T17:02:33.650Z</time>
      </trkpt>
      <trkpt lat="50.50141" lon="3.4526">
        <ele>17.379731</ele>
        <time>2020-06-01T17:02:35.515Z</time>
      </trkpt>
      <trkpt lat="50.50195" lon="3.45295">
        <ele>17.502015</ele>
        <time>2020-06-01T17:02:43.300Z</time>
      </trkpt>
      <trkpt lat="50.50229" lon="3.45322">
        <ele>17.582978</ele>
        <time>2020-06-01T17:02:48.806Z</time>
      </trkpt>
      <trkpt lat="50.5031" lon="3.45386">
        <ele>17.798459</ele>
        <time>2020-06-01T17:03:05.267Z</time>
      </trkpt>
      <trkpt lat="50.50341" lon="3.45413">
        <ele>17.995804</ele>
        <time>2020-06-01T17:03:11.320Z</time>
      </trkpt>
      <trkpt lat="50.50355" lon="3.45425">
        <ele>18.084909</ele>
        <time>2020-06-01T17:03:13.926Z</time>
      </trkpt>
      <trkpt lat="50.50407" lon="3.45459">
        <ele>18.396851</ele>
        <time>2020-06-01T17:03:23.259Z</time>
      </trkpt>
      <trkpt lat="50.50416" lon="3.45464">
        <ele>18.452419</ele>
        <time>2020-06-01T17:03:24.924Z</time>
      </trkpt>
      <trkpt lat="50.50444" lon="3.45482">
        <ele>18.61815</ele>
        <time>2020-06-01T17:03:30.070Z</time>
      </trkpt>
      <trkpt lat="50.50447" lon="3.4549">
        <ele>18.651687</ele>
        <time>2020-06-01T17:03:31.073Z</time>
      </trkpt>
      <trkpt lat="50.50448" lon="3.45508">
        <ele>18.717397</ele>
        <time>2020-06-01T17:03:33.040Z</time>
      </trkpt>
      <trkpt lat="50.50443" lon="3.45552">
        <ele>18.854057</ele>
        <time>2020-06-01T17:03:38.106Z</time>
      </trkpt>
      <trkpt lat="50.50441" lon="3.45568">
        <ele>18.901512</ele>
        <time>2020-06-01T17:03:39.788Z</time>
      </trkpt>
      <trkpt lat="50.50441" lon="3.45573">
        <ele>18.91643</ele>
        <time>2020-06-01T17:03:40.320Z</time>
      </trkpt>
      <trkpt lat="50.5044" lon="3.45588">
        <ele>18.96108</ele>
        <time>2020-06-01T17:03:42.169Z</time>
      </trkpt>
      <trkpt lat="50.50437" lon="3.45631">
        <ele>19.087813</ele>
        <time>2020-06-01T17:03:46.495Z</time>
      </trkpt>
      <trkpt lat="50.50436" lon="3.45642">
        <ele>19.119864</ele>
        <time>2020-06-01T17:03:47.883Z</time>
      </trkpt>
      <trkpt lat="50.50433" lon="3.4572">
        <ele>19.345265</ele>
        <time>2020-06-01T17:03:55.892Z</time>
      </trkpt>
      <trkpt lat="50.50424" lon="3.45772">
        <ele>19.502834</ele>
        <time>2020-06-01T17:04:01.563Z</time>
      </trkpt>
      <trkpt lat="50.5041" lon="3.45851">
        <ele>19.737193</ele>
        <time>2020-06-01T17:04:10.139Z</time>
      </trkpt>
      <trkpt lat="50.50361" lon="3.46074">
        <ele>20.400489</ele>
        <time>2020-06-01T17:04:35.397Z</time>
      </trkpt>
      <trkpt lat="50.50345" lon="3.46155">
        <ele>20.548322</ele>
        <time>2020-06-01T17:04:44.250Z</time>
      </trkpt>
      <trkpt lat="50.50335" lon="3.46236">
        <ele>20.692045</ele>
        <time>2020-06-01T17:04:52.465Z</time>
      </trkpt>
      <trkpt lat="50.50325" lon="3.46304">
        <ele>20.814829</ele>
        <time>2020-06-01T17:04:59.516Z</time>
      </trkpt>
      <trkpt lat="50.50317" lon="3.46374">
        <ele>20.883618</ele>
        <time>2020-06-01T17:05:06.562Z</time>
      </trkpt>
      <trkpt lat="50.50313" lon="3.46411">
        <ele>20.883618</ele>
        <time>2020-06-01T17:05:10.051Z</time>
      </trkpt>
      <trkpt lat="50.50316" lon="3.46422">
        <ele>20.883618</ele>
        <time>2020-06-01T17:05:11.297Z</time>
      </trkpt>
      <trkpt lat="50.5034" lon="3.46438">
        <ele>20.883618</ele>
        <time>2020-06-01T17:05:15.118Z</time>
      </trkpt>
      <trkpt lat="50.50361" lon="3.46454">
        <ele>20.883618</ele>
        <time>2020-06-01T17:05:18.508Z</time>
      </trkpt>
      <trkpt lat="50.50361" lon="3.46454">
        <ele>20.883618</ele>
        <time>2020-06-01T17:05:18.571Z</time>
      </trkpt>
    </trkseg>
  </trk>
</gpx>